<?xml version="1.0" encoding="UTF-8" standalone="no" ?>
<gpx xmlns="http://www.topografix.com/GPX/1/1" xmlns:xsi="http://www.w3.org/2001/XMLSchema-instance" xsi:schemaLocation="http://www.topografix.com/GPX/1/1 http://www.topografix.com/GPX/1/1/gpx.xsd" version="1.1" creator="VisuGPX - https://www.visugpx.com">
  <metadata>
    <name>Descente  du Montaigu à VTT</name>
    <desc><![CDATA[Film réalisé dans la descente.]]></desc>
  </metadata>
  <trk>
    <name><![CDATA[Descente à VTT du Montaigu]]></name>
    <trkseg>
      <trkpt lat="48.25229" lon="-0.35953">
        <ele>201</ele>
        <time>2013-07-15T06:45:59Z</time>
      </trkpt>
      <trkpt lat="48.25229" lon="-0.35953">
        <ele>233</ele>
        <time>2013-07-15T06:46:02Z</time>
      </trkpt>
      <trkpt lat="48.25225" lon="-0.35982">
        <ele>242</ele>
        <time>2013-07-15T06:46:21Z</time>
      </trkpt>
      <trkpt lat="48.25219" lon="-0.36005">
        <ele>242</ele>
        <time>2013-07-15T06:46:27Z</time>
      </trkpt>
      <trkpt lat="48.25209" lon="-0.36026">
        <ele>240</ele>
        <time>2013-07-15T06:46:32Z</time>
      </trkpt>
      <trkpt lat="48.25194" lon="-0.36051">
        <ele>241</ele>
        <time>2013-07-15T06:46:38Z</time>
      </trkpt>
      <trkpt lat="48.25181" lon="-0.36067">
        <ele>241</ele>
        <time>2013-07-15T06:46:43Z</time>
      </trkpt>
      <trkpt lat="48.25159" lon="-0.36095">
        <ele>242</ele>
        <time>2013-07-15T06:46:51Z</time>
      </trkpt>
      <trkpt lat="48.25143" lon="-0.36119">
        <ele>240</ele>
        <time>2013-07-15T06:46:57Z</time>
      </trkpt>
      <trkpt lat="48.25133" lon="-0.36144">
        <ele>234</ele>
        <time>2013-07-15T06:47:02Z</time>
      </trkpt>
      <trkpt lat="48.25124" lon="-0.36169">
        <ele>233</ele>
        <time>2013-07-15T06:47:08Z</time>
      </trkpt>
      <trkpt lat="48.25105" lon="-0.36198">
        <ele>232</ele>
        <time>2013-07-15T06:47:16Z</time>
      </trkpt>
      <trkpt lat="48.2509" lon="-0.36216">
        <ele>227</ele>
        <time>2013-07-15T06:47:21Z</time>
      </trkpt>
      <trkpt lat="48.25077" lon="-0.3623">
        <ele>225</ele>
        <time>2013-07-15T06:47:27Z</time>
      </trkpt>
      <trkpt lat="48.25084" lon="-0.36258">
        <ele>228</ele>
        <time>2013-07-15T06:47:37Z</time>
      </trkpt>
      <trkpt lat="48.25097" lon="-0.36291">
        <ele>232</ele>
        <time>2013-07-15T06:47:43Z</time>
      </trkpt>
      <trkpt lat="48.25105" lon="-0.36312">
        <ele>231</ele>
        <time>2013-07-15T06:47:47Z</time>
      </trkpt>
      <trkpt lat="48.25119" lon="-0.36348">
        <ele>232</ele>
        <time>2013-07-15T06:47:54Z</time>
      </trkpt>
      <trkpt lat="48.25131" lon="-0.36374">
        <ele>234</ele>
        <time>2013-07-15T06:47:59Z</time>
      </trkpt>
      <trkpt lat="48.25145" lon="-0.36406">
        <ele>232</ele>
        <time>2013-07-15T06:48:06Z</time>
      </trkpt>
      <trkpt lat="48.25164" lon="-0.36437">
        <ele>232</ele>
        <time>2013-07-15T06:48:13Z</time>
      </trkpt>
      <trkpt lat="48.25181" lon="-0.36459">
        <ele>231</ele>
        <time>2013-07-15T06:48:19Z</time>
      </trkpt>
      <trkpt lat="48.25194" lon="-0.36483">
        <ele>239</ele>
        <time>2013-07-15T06:48:25Z</time>
      </trkpt>
      <trkpt lat="48.25188" lon="-0.36511">
        <ele>237</ele>
        <time>2013-07-15T06:48:32Z</time>
      </trkpt>
      <trkpt lat="48.25159" lon="-0.36547">
        <ele>236</ele>
        <time>2013-07-15T06:48:40Z</time>
      </trkpt>
      <trkpt lat="48.25132" lon="-0.36577">
        <ele>229</ele>
        <time>2013-07-15T06:48:46Z</time>
      </trkpt>
      <trkpt lat="48.25111" lon="-0.36599">
        <ele>228</ele>
        <time>2013-07-15T06:48:51Z</time>
      </trkpt>
      <trkpt lat="48.2509" lon="-0.36625">
        <ele>225</ele>
        <time>2013-07-15T06:48:57Z</time>
      </trkpt>
      <trkpt lat="48.25073" lon="-0.36641">
        <ele>223</ele>
        <time>2013-07-15T06:49:02Z</time>
      </trkpt>
      <trkpt lat="48.25055" lon="-0.36666">
        <ele>220</ele>
        <time>2013-07-15T06:49:09Z</time>
      </trkpt>
      <trkpt lat="48.25056" lon="-0.36691">
        <ele>225</ele>
        <time>2013-07-15T06:49:14Z</time>
      </trkpt>
      <trkpt lat="48.25063" lon="-0.36728">
        <ele>228</ele>
        <time>2013-07-15T06:49:20Z</time>
      </trkpt>
      <trkpt lat="48.25071" lon="-0.36758">
        <ele>227</ele>
        <time>2013-07-15T06:49:25Z</time>
      </trkpt>
      <trkpt lat="48.25081" lon="-0.36798">
        <ele>231</ele>
        <time>2013-07-15T06:49:31Z</time>
      </trkpt>
      <trkpt lat="48.25085" lon="-0.36816">
        <ele>232</ele>
        <time>2013-07-15T06:49:34Z</time>
      </trkpt>
      <trkpt lat="48.2509" lon="-0.36833">
        <ele>233</ele>
        <time>2013-07-15T06:49:37Z</time>
      </trkpt>
      <trkpt lat="48.25099" lon="-0.3687">
        <ele>230</ele>
        <time>2013-07-15T06:49:43Z</time>
      </trkpt>
      <trkpt lat="48.25107" lon="-0.3691">
        <ele>229</ele>
        <time>2013-07-15T06:49:50Z</time>
      </trkpt>
      <trkpt lat="48.25115" lon="-0.36939">
        <ele>229</ele>
        <time>2013-07-15T06:49:55Z</time>
      </trkpt>
      <trkpt lat="48.2512" lon="-0.36956">
        <ele>229</ele>
        <time>2013-07-15T06:49:58Z</time>
      </trkpt>
      <trkpt lat="48.25124" lon="-0.36975">
        <ele>226</ele>
        <time>2013-07-15T06:50:01Z</time>
      </trkpt>
      <trkpt lat="48.25128" lon="-0.36993">
        <ele>226</ele>
        <time>2013-07-15T06:50:04Z</time>
      </trkpt>
      <trkpt lat="48.25133" lon="-0.3701">
        <ele>227</ele>
        <time>2013-07-15T06:50:07Z</time>
      </trkpt>
      <trkpt lat="48.25137" lon="-0.37028">
        <ele>225</ele>
        <time>2013-07-15T06:50:10Z</time>
      </trkpt>
      <trkpt lat="48.25147" lon="-0.37066">
        <ele>225</ele>
        <time>2013-07-15T06:50:16Z</time>
      </trkpt>
      <trkpt lat="48.25151" lon="-0.37085">
        <ele>227</ele>
        <time>2013-07-15T06:50:19Z</time>
      </trkpt>
      <trkpt lat="48.25156" lon="-0.37103">
        <ele>225</ele>
        <time>2013-07-15T06:50:22Z</time>
      </trkpt>
      <trkpt lat="48.25165" lon="-0.37141">
        <ele>225</ele>
        <time>2013-07-15T06:50:28Z</time>
      </trkpt>
      <trkpt lat="48.25174" lon="-0.37175">
        <ele>223</ele>
        <time>2013-07-15T06:50:33Z</time>
      </trkpt>
      <trkpt lat="48.25184" lon="-0.37217">
        <ele>223</ele>
        <time>2013-07-15T06:50:39Z</time>
      </trkpt>
      <trkpt lat="48.2519" lon="-0.3724">
        <ele>222</ele>
        <time>2013-07-15T06:50:42Z</time>
      </trkpt>
      <trkpt lat="48.25201" lon="-0.37284">
        <ele>219</ele>
        <time>2013-07-15T06:50:48Z</time>
      </trkpt>
      <trkpt lat="48.25217" lon="-0.37329">
        <ele>219</ele>
        <time>2013-07-15T06:50:54Z</time>
      </trkpt>
      <trkpt lat="48.25227" lon="-0.37349">
        <ele>223</ele>
        <time>2013-07-15T06:50:57Z</time>
      </trkpt>
      <trkpt lat="48.25237" lon="-0.37371">
        <ele>224</ele>
        <time>2013-07-15T06:51:00Z</time>
      </trkpt>
      <trkpt lat="48.25257" lon="-0.37411">
        <ele>223</ele>
        <time>2013-07-15T06:51:06Z</time>
      </trkpt>
      <trkpt lat="48.25265" lon="-0.3743">
        <ele>218</ele>
        <time>2013-07-15T06:51:09Z</time>
      </trkpt>
      <trkpt lat="48.25276" lon="-0.37456">
        <ele>221</ele>
        <time>2013-07-15T06:51:14Z</time>
      </trkpt>
      <trkpt lat="48.25287" lon="-0.37497">
        <ele>224</ele>
        <time>2013-07-15T06:51:21Z</time>
      </trkpt>
      <trkpt lat="48.25289" lon="-0.37536">
        <ele>218</ele>
        <time>2013-07-15T06:51:27Z</time>
      </trkpt>
      <trkpt lat="48.25289" lon="-0.37557">
        <ele>219</ele>
        <time>2013-07-15T06:51:30Z</time>
      </trkpt>
      <trkpt lat="48.25288" lon="-0.37591">
        <ele>217</ele>
        <time>2013-07-15T06:51:35Z</time>
      </trkpt>
      <trkpt lat="48.25286" lon="-0.37628">
        <ele>216</ele>
        <time>2013-07-15T06:51:40Z</time>
      </trkpt>
      <trkpt lat="48.25283" lon="-0.37669">
        <ele>212</ele>
        <time>2013-07-15T06:51:46Z</time>
      </trkpt>
      <trkpt lat="48.25284" lon="-0.37701">
        <ele>208</ele>
        <time>2013-07-15T06:51:51Z</time>
      </trkpt>
      <trkpt lat="48.25283" lon="-0.37737">
        <ele>212</ele>
        <time>2013-07-15T06:51:56Z</time>
      </trkpt>
      <trkpt lat="48.25284" lon="-0.37771">
        <ele>217</ele>
        <time>2013-07-15T06:52:01Z</time>
      </trkpt>
      <trkpt lat="48.25287" lon="-0.37818">
        <ele>217</ele>
        <time>2013-07-15T06:52:08Z</time>
      </trkpt>
      <trkpt lat="48.2529" lon="-0.37861">
        <ele>218</ele>
        <time>2013-07-15T06:52:14Z</time>
      </trkpt>
      <trkpt lat="48.25291" lon="-0.37898">
        <ele>219</ele>
        <time>2013-07-15T06:52:19Z</time>
      </trkpt>
      <trkpt lat="48.2529" lon="-0.37937">
        <ele>216</ele>
        <time>2013-07-15T06:52:25Z</time>
      </trkpt>
      <trkpt lat="48.25291" lon="-0.37979">
        <ele>215</ele>
        <time>2013-07-15T06:52:31Z</time>
      </trkpt>
      <trkpt lat="48.25291" lon="-0.38">
        <ele>215</ele>
        <time>2013-07-15T06:52:34Z</time>
      </trkpt>
      <trkpt lat="48.25291" lon="-0.38022">
        <ele>216</ele>
        <time>2013-07-15T06:52:37Z</time>
      </trkpt>
      <trkpt lat="48.25291" lon="-0.38057">
        <ele>218</ele>
        <time>2013-07-15T06:52:42Z</time>
      </trkpt>
      <trkpt lat="48.25292" lon="-0.38079">
        <ele>220</ele>
        <time>2013-07-15T06:52:45Z</time>
      </trkpt>
      <trkpt lat="48.25296" lon="-0.38116">
        <ele>219</ele>
        <time>2013-07-15T06:52:50Z</time>
      </trkpt>
      <trkpt lat="48.25303" lon="-0.38159">
        <ele>218</ele>
        <time>2013-07-15T06:52:56Z</time>
      </trkpt>
      <trkpt lat="48.25312" lon="-0.382">
        <ele>219</ele>
        <time>2013-07-15T06:53:02Z</time>
      </trkpt>
      <trkpt lat="48.2532" lon="-0.38244">
        <ele>217</ele>
        <time>2013-07-15T06:53:08Z</time>
      </trkpt>
      <trkpt lat="48.25328" lon="-0.38288">
        <ele>217</ele>
        <time>2013-07-15T06:53:14Z</time>
      </trkpt>
      <trkpt lat="48.25332" lon="-0.38308">
        <ele>217</ele>
        <time>2013-07-15T06:53:17Z</time>
      </trkpt>
      <trkpt lat="48.25338" lon="-0.38329">
        <ele>218</ele>
        <time>2013-07-15T06:53:21Z</time>
      </trkpt>
      <trkpt lat="48.25342" lon="-0.38349">
        <ele>219</ele>
        <time>2013-07-15T06:53:23Z</time>
      </trkpt>
      <trkpt lat="48.2535" lon="-0.38389">
        <ele>219</ele>
        <time>2013-07-15T06:53:29Z</time>
      </trkpt>
      <trkpt lat="48.25355" lon="-0.38423">
        <ele>216</ele>
        <time>2013-07-15T06:53:34Z</time>
      </trkpt>
      <trkpt lat="48.25359" lon="-0.38445">
        <ele>218</ele>
        <time>2013-07-15T06:53:37Z</time>
      </trkpt>
      <trkpt lat="48.25364" lon="-0.38468">
        <ele>218</ele>
        <time>2013-07-15T06:53:40Z</time>
      </trkpt>
      <trkpt lat="48.25374" lon="-0.38516">
        <ele>215</ele>
        <time>2013-07-15T06:53:46Z</time>
      </trkpt>
      <trkpt lat="48.25383" lon="-0.38564">
        <ele>213</ele>
        <time>2013-07-15T06:53:52Z</time>
      </trkpt>
      <trkpt lat="48.25388" lon="-0.38587">
        <ele>215</ele>
        <time>2013-07-15T06:53:55Z</time>
      </trkpt>
      <trkpt lat="48.25395" lon="-0.3862">
        <ele>214</ele>
        <time>2013-07-15T06:54:00Z</time>
      </trkpt>
      <trkpt lat="48.25403" lon="-0.3866">
        <ele>214</ele>
        <time>2013-07-15T06:54:06Z</time>
      </trkpt>
      <trkpt lat="48.25407" lon="-0.38681">
        <ele>214</ele>
        <time>2013-07-15T06:54:09Z</time>
      </trkpt>
      <trkpt lat="48.25414" lon="-0.38715">
        <ele>216</ele>
        <time>2013-07-15T06:54:14Z</time>
      </trkpt>
      <trkpt lat="48.25418" lon="-0.38735">
        <ele>215</ele>
        <time>2013-07-15T06:54:17Z</time>
      </trkpt>
      <trkpt lat="48.25427" lon="-0.38777">
        <ele>216</ele>
        <time>2013-07-15T06:54:23Z</time>
      </trkpt>
      <trkpt lat="48.25431" lon="-0.38796">
        <ele>216</ele>
        <time>2013-07-15T06:54:26Z</time>
      </trkpt>
      <trkpt lat="48.25439" lon="-0.38835">
        <ele>214</ele>
        <time>2013-07-15T06:54:32Z</time>
      </trkpt>
      <trkpt lat="48.25448" lon="-0.38874">
        <ele>215</ele>
        <time>2013-07-15T06:54:38Z</time>
      </trkpt>
      <trkpt lat="48.25455" lon="-0.38906">
        <ele>214</ele>
        <time>2013-07-15T06:54:43Z</time>
      </trkpt>
      <trkpt lat="48.25461" lon="-0.3894">
        <ele>214</ele>
        <time>2013-07-15T06:54:48Z</time>
      </trkpt>
      <trkpt lat="48.25469" lon="-0.38974">
        <ele>213</ele>
        <time>2013-07-15T06:54:53Z</time>
      </trkpt>
      <trkpt lat="48.25475" lon="-0.39006">
        <ele>212</ele>
        <time>2013-07-15T06:54:58Z</time>
      </trkpt>
      <trkpt lat="48.25482" lon="-0.39045">
        <ele>211</ele>
        <time>2013-07-15T06:55:04Z</time>
      </trkpt>
      <trkpt lat="48.25486" lon="-0.39065">
        <ele>212</ele>
        <time>2013-07-15T06:55:07Z</time>
      </trkpt>
      <trkpt lat="48.25495" lon="-0.39105">
        <ele>213</ele>
        <time>2013-07-15T06:55:13Z</time>
      </trkpt>
      <trkpt lat="48.255" lon="-0.39125">
        <ele>212</ele>
        <time>2013-07-15T06:55:16Z</time>
      </trkpt>
      <trkpt lat="48.25507" lon="-0.39156">
        <ele>212</ele>
        <time>2013-07-15T06:55:21Z</time>
      </trkpt>
      <trkpt lat="48.25514" lon="-0.3919">
        <ele>211</ele>
        <time>2013-07-15T06:55:26Z</time>
      </trkpt>
      <trkpt lat="48.25522" lon="-0.39233">
        <ele>214</ele>
        <time>2013-07-15T06:55:32Z</time>
      </trkpt>
      <trkpt lat="48.25524" lon="-0.39277">
        <ele>210</ele>
        <time>2013-07-15T06:55:38Z</time>
      </trkpt>
      <trkpt lat="48.25522" lon="-0.39314">
        <ele>205</ele>
        <time>2013-07-15T06:55:43Z</time>
      </trkpt>
      <trkpt lat="48.25518" lon="-0.39349">
        <ele>203</ele>
        <time>2013-07-15T06:55:48Z</time>
      </trkpt>
      <trkpt lat="48.25514" lon="-0.39371">
        <ele>200</ele>
        <time>2013-07-15T06:55:51Z</time>
      </trkpt>
      <trkpt lat="48.25511" lon="-0.39393">
        <ele>205</ele>
        <time>2013-07-15T06:55:54Z</time>
      </trkpt>
      <trkpt lat="48.25505" lon="-0.39438">
        <ele>200</ele>
        <time>2013-07-15T06:56:00Z</time>
      </trkpt>
      <trkpt lat="48.255" lon="-0.39482">
        <ele>199</ele>
        <time>2013-07-15T06:56:06Z</time>
      </trkpt>
      <trkpt lat="48.25495" lon="-0.39529">
        <ele>208</ele>
        <time>2013-07-15T06:56:13Z</time>
      </trkpt>
      <trkpt lat="48.25492" lon="-0.3956">
        <ele>208</ele>
        <time>2013-07-15T06:56:18Z</time>
      </trkpt>
      <trkpt lat="48.25491" lon="-0.39577">
        <ele>205</ele>
        <time>2013-07-15T06:56:21Z</time>
      </trkpt>
      <trkpt lat="48.25491" lon="-0.39592">
        <ele>204</ele>
        <time>2013-07-15T06:56:24Z</time>
      </trkpt>
      <trkpt lat="48.25495" lon="-0.39631">
        <ele>206</ele>
        <time>2013-07-15T06:56:31Z</time>
      </trkpt>
      <trkpt lat="48.25497" lon="-0.39647">
        <ele>207</ele>
        <time>2013-07-15T06:56:34Z</time>
      </trkpt>
      <trkpt lat="48.25503" lon="-0.39686">
        <ele>207</ele>
        <time>2013-07-15T06:56:41Z</time>
      </trkpt>
      <trkpt lat="48.25507" lon="-0.39713">
        <ele>211</ele>
        <time>2013-07-15T06:56:46Z</time>
      </trkpt>
      <trkpt lat="48.2551" lon="-0.39746">
        <ele>213</ele>
        <time>2013-07-15T06:56:52Z</time>
      </trkpt>
      <trkpt lat="48.25513" lon="-0.39772">
        <ele>213</ele>
        <time>2013-07-15T06:56:57Z</time>
      </trkpt>
      <trkpt lat="48.25518" lon="-0.39804">
        <ele>213</ele>
        <time>2013-07-15T06:57:03Z</time>
      </trkpt>
      <trkpt lat="48.25525" lon="-0.3984">
        <ele>214</ele>
        <time>2013-07-15T06:57:10Z</time>
      </trkpt>
      <trkpt lat="48.2553" lon="-0.39878">
        <ele>214</ele>
        <time>2013-07-15T06:57:17Z</time>
      </trkpt>
      <trkpt lat="48.25533" lon="-0.39914">
        <ele>214</ele>
        <time>2013-07-15T06:57:24Z</time>
      </trkpt>
      <trkpt lat="48.25538" lon="-0.3995">
        <ele>214</ele>
        <time>2013-07-15T06:57:31Z</time>
      </trkpt>
      <trkpt lat="48.2554" lon="-0.39964">
        <ele>215</ele>
        <time>2013-07-15T06:57:34Z</time>
      </trkpt>
      <trkpt lat="48.25542" lon="-0.39982">
        <ele>214</ele>
        <time>2013-07-15T06:57:38Z</time>
      </trkpt>
      <trkpt lat="48.25546" lon="-0.40017">
        <ele>215</ele>
        <time>2013-07-15T06:57:46Z</time>
      </trkpt>
      <trkpt lat="48.25552" lon="-0.40046">
        <ele>218</ele>
        <time>2013-07-15T06:57:53Z</time>
      </trkpt>
      <trkpt lat="48.25555" lon="-0.40063">
        <ele>216</ele>
        <time>2013-07-15T06:57:57Z</time>
      </trkpt>
      <trkpt lat="48.2556" lon="-0.40096">
        <ele>218</ele>
        <time>2013-07-15T06:58:06Z</time>
      </trkpt>
      <trkpt lat="48.25567" lon="-0.40133">
        <ele>220</ele>
        <time>2013-07-15T06:58:16Z</time>
      </trkpt>
      <trkpt lat="48.25575" lon="-0.40172">
        <ele>223</ele>
        <time>2013-07-15T06:58:26Z</time>
      </trkpt>
      <trkpt lat="48.25578" lon="-0.40196">
        <ele>223</ele>
        <time>2013-07-15T06:58:32Z</time>
      </trkpt>
      <trkpt lat="48.25582" lon="-0.40226">
        <ele>226</ele>
        <time>2013-07-15T06:58:41Z</time>
      </trkpt>
      <trkpt lat="48.25585" lon="-0.40255">
        <ele>224</ele>
        <time>2013-07-15T06:58:49Z</time>
      </trkpt>
      <trkpt lat="48.25586" lon="-0.40265">
        <ele>223</ele>
        <time>2013-07-15T06:58:52Z</time>
      </trkpt>
      <trkpt lat="48.25589" lon="-0.40297">
        <ele>228</ele>
        <time>2013-07-15T06:59:00Z</time>
      </trkpt>
      <trkpt lat="48.25592" lon="-0.40325">
        <ele>223</ele>
        <time>2013-07-15T06:59:08Z</time>
      </trkpt>
      <trkpt lat="48.25595" lon="-0.40358">
        <ele>218</ele>
        <time>2013-07-15T06:59:17Z</time>
      </trkpt>
      <trkpt lat="48.25599" lon="-0.40401">
        <ele>226</ele>
        <time>2013-07-15T06:59:27Z</time>
      </trkpt>
      <trkpt lat="48.25602" lon="-0.40423">
        <ele>226</ele>
        <time>2013-07-15T06:59:32Z</time>
      </trkpt>
      <trkpt lat="48.25609" lon="-0.40458">
        <ele>229</ele>
        <time>2013-07-15T06:59:39Z</time>
      </trkpt>
      <trkpt lat="48.25616" lon="-0.4049">
        <ele>228</ele>
        <time>2013-07-15T06:59:45Z</time>
      </trkpt>
      <trkpt lat="48.25624" lon="-0.4052">
        <ele>227</ele>
        <time>2013-07-15T06:59:50Z</time>
      </trkpt>
      <trkpt lat="48.25633" lon="-0.4055">
        <ele>228</ele>
        <time>2013-07-15T06:59:55Z</time>
      </trkpt>
      <trkpt lat="48.25637" lon="-0.4057">
        <ele>229</ele>
        <time>2013-07-15T06:59:58Z</time>
      </trkpt>
      <trkpt lat="48.25641" lon="-0.40596">
        <ele>227</ele>
        <time>2013-07-15T07:00:03Z</time>
      </trkpt>
      <trkpt lat="48.25643" lon="-0.40624">
        <ele>225</ele>
        <time>2013-07-15T07:00:09Z</time>
      </trkpt>
      <trkpt lat="48.25642" lon="-0.4066">
        <ele>226</ele>
        <time>2013-07-15T07:00:17Z</time>
      </trkpt>
      <trkpt lat="48.2564" lon="-0.40687">
        <ele>230</ele>
        <time>2013-07-15T07:00:24Z</time>
      </trkpt>
      <trkpt lat="48.25639" lon="-0.40708">
        <ele>227</ele>
        <time>2013-07-15T07:00:29Z</time>
      </trkpt>
      <trkpt lat="48.25633" lon="-0.40738">
        <ele>229</ele>
        <time>2013-07-15T07:00:38Z</time>
      </trkpt>
      <trkpt lat="48.25614" lon="-0.40732">
        <ele>236</ele>
        <time>2013-07-15T07:00:47Z</time>
      </trkpt>
      <trkpt lat="48.25585" lon="-0.40722">
        <ele>237</ele>
        <time>2013-07-15T07:00:58Z</time>
      </trkpt>
      <trkpt lat="48.25566" lon="-0.40711">
        <ele>227</ele>
        <time>2013-07-15T07:01:06Z</time>
      </trkpt>
      <trkpt lat="48.25546" lon="-0.407">
        <ele>222</ele>
        <time>2013-07-15T07:01:15Z</time>
      </trkpt>
      <trkpt lat="48.25519" lon="-0.40692">
        <ele>228</ele>
        <time>2013-07-15T07:01:24Z</time>
      </trkpt>
      <trkpt lat="48.25503" lon="-0.40687">
        <ele>230</ele>
        <time>2013-07-15T07:01:29Z</time>
      </trkpt>
      <trkpt lat="48.25489" lon="-0.40679">
        <ele>227</ele>
        <time>2013-07-15T07:01:35Z</time>
      </trkpt>
      <trkpt lat="48.2547" lon="-0.40672">
        <ele>227</ele>
        <time>2013-07-15T07:01:42Z</time>
      </trkpt>
      <trkpt lat="48.2545" lon="-0.40666">
        <ele>225</ele>
        <time>2013-07-15T07:01:48Z</time>
      </trkpt>
      <trkpt lat="48.25441" lon="-0.40663">
        <ele>221</ele>
        <time>2013-07-15T07:01:51Z</time>
      </trkpt>
      <trkpt lat="48.25416" lon="-0.40655">
        <ele>226</ele>
        <time>2013-07-15T07:01:59Z</time>
      </trkpt>
      <trkpt lat="48.25395" lon="-0.40643">
        <ele>222</ele>
        <time>2013-07-15T07:02:05Z</time>
      </trkpt>
      <trkpt lat="48.25376" lon="-0.40633">
        <ele>219</ele>
        <time>2013-07-15T07:02:11Z</time>
      </trkpt>
      <trkpt lat="48.25356" lon="-0.40616">
        <ele>218</ele>
        <time>2013-07-15T07:02:19Z</time>
      </trkpt>
      <trkpt lat="48.25335" lon="-0.40601">
        <ele>222</ele>
        <time>2013-07-15T07:02:27Z</time>
      </trkpt>
      <trkpt lat="48.25312" lon="-0.40585">
        <ele>227</ele>
        <time>2013-07-15T07:02:34Z</time>
      </trkpt>
      <trkpt lat="48.253" lon="-0.40577">
        <ele>223</ele>
        <time>2013-07-15T07:02:37Z</time>
      </trkpt>
      <trkpt lat="48.25279" lon="-0.40559">
        <ele>220</ele>
        <time>2013-07-15T07:02:42Z</time>
      </trkpt>
      <trkpt lat="48.25264" lon="-0.40549">
        <ele>217</ele>
        <time>2013-07-15T07:02:47Z</time>
      </trkpt>
      <trkpt lat="48.25246" lon="-0.40538">
        <ele>214</ele>
        <time>2013-07-15T07:02:54Z</time>
      </trkpt>
      <trkpt lat="48.25222" lon="-0.40519">
        <ele>217</ele>
        <time>2013-07-15T07:03:04Z</time>
      </trkpt>
      <trkpt lat="48.25209" lon="-0.40509">
        <ele>224</ele>
        <time>2013-07-15T07:03:08Z</time>
      </trkpt>
      <trkpt lat="48.25191" lon="-0.40501">
        <ele>220</ele>
        <time>2013-07-15T07:03:14Z</time>
      </trkpt>
      <trkpt lat="48.2517" lon="-0.40486">
        <ele>225</ele>
        <time>2013-07-15T07:03:22Z</time>
      </trkpt>
      <trkpt lat="48.2516" lon="-0.4048">
        <ele>223</ele>
        <time>2013-07-15T07:03:25Z</time>
      </trkpt>
      <trkpt lat="48.25151" lon="-0.40476">
        <ele>223</ele>
        <time>2013-07-15T07:03:29Z</time>
      </trkpt>
      <trkpt lat="48.25134" lon="-0.40464">
        <ele>224</ele>
        <time>2013-07-15T07:03:39Z</time>
      </trkpt>
      <trkpt lat="48.25114" lon="-0.40447">
        <ele>222</ele>
        <time>2013-07-15T07:03:51Z</time>
      </trkpt>
      <trkpt lat="48.25093" lon="-0.40443">
        <ele>219</ele>
        <time>2013-07-15T07:03:58Z</time>
      </trkpt>
      <trkpt lat="48.25076" lon="-0.4045">
        <ele>225</ele>
        <time>2013-07-15T07:04:04Z</time>
      </trkpt>
      <trkpt lat="48.25059" lon="-0.4046">
        <ele>230</ele>
        <time>2013-07-15T07:04:11Z</time>
      </trkpt>
      <trkpt lat="48.25046" lon="-0.40472">
        <ele>221</ele>
        <time>2013-07-15T07:04:16Z</time>
      </trkpt>
      <trkpt lat="48.25036" lon="-0.40481">
        <ele>220</ele>
        <time>2013-07-15T07:04:20Z</time>
      </trkpt>
      <trkpt lat="48.25022" lon="-0.40495">
        <ele>228</ele>
        <time>2013-07-15T07:04:27Z</time>
      </trkpt>
      <trkpt lat="48.25004" lon="-0.4052">
        <ele>228</ele>
        <time>2013-07-15T07:04:39Z</time>
      </trkpt>
      <trkpt lat="48.24988" lon="-0.40534">
        <ele>222</ele>
        <time>2013-07-15T07:04:48Z</time>
      </trkpt>
      <trkpt lat="48.24974" lon="-0.40543">
        <ele>222</ele>
        <time>2013-07-15T07:04:56Z</time>
      </trkpt>
      <trkpt lat="48.24957" lon="-0.40558">
        <ele>221</ele>
        <time>2013-07-15T07:05:07Z</time>
      </trkpt>
      <trkpt lat="48.24934" lon="-0.40574">
        <ele>220</ele>
        <time>2013-07-15T07:05:17Z</time>
      </trkpt>
      <trkpt lat="48.24909" lon="-0.40592">
        <ele>230</ele>
        <time>2013-07-15T07:05:27Z</time>
      </trkpt>
      <trkpt lat="48.24897" lon="-0.40602">
        <ele>233</ele>
        <time>2013-07-15T07:05:32Z</time>
      </trkpt>
      <trkpt lat="48.24892" lon="-0.40607">
        <ele>232</ele>
        <time>2013-07-15T07:05:35Z</time>
      </trkpt>
      <trkpt lat="48.24892" lon="-0.40607">
        <ele>180</ele>
        <time>2013-07-15T07:05:41Z</time>
      </trkpt>
      <trkpt lat="48.24892" lon="-0.40607">
        <ele>180</ele>
        <time>2013-07-15T07:07:07Z</time>
      </trkpt>
      <trkpt lat="48.24879" lon="-0.40628">
        <ele>227</ele>
        <time>2013-07-15T07:07:07Z</time>
      </trkpt>
      <trkpt lat="48.24866" lon="-0.40607">
        <ele>226</ele>
        <time>2013-07-15T07:07:16Z</time>
      </trkpt>
      <trkpt lat="48.24854" lon="-0.40581">
        <ele>233</ele>
        <time>2013-07-15T07:07:25Z</time>
      </trkpt>
      <trkpt lat="48.24847" lon="-0.40559">
        <ele>228</ele>
        <time>2013-07-15T07:07:31Z</time>
      </trkpt>
      <trkpt lat="48.24838" lon="-0.40529">
        <ele>235</ele>
        <time>2013-07-15T07:07:39Z</time>
      </trkpt>
      <trkpt lat="48.24826" lon="-0.40496">
        <ele>231</ele>
        <time>2013-07-15T07:07:48Z</time>
      </trkpt>
      <trkpt lat="48.24819" lon="-0.4047">
        <ele>232</ele>
        <time>2013-07-15T07:07:56Z</time>
      </trkpt>
      <trkpt lat="48.24814" lon="-0.40454">
        <ele>230</ele>
        <time>2013-07-15T07:08:02Z</time>
      </trkpt>
      <trkpt lat="48.24811" lon="-0.40431">
        <ele>224</ele>
        <time>2013-07-15T07:08:10Z</time>
      </trkpt>
      <trkpt lat="48.24801" lon="-0.40413">
        <ele>222</ele>
        <time>2013-07-15T07:08:25Z</time>
      </trkpt>
      <trkpt lat="48.24783" lon="-0.40404">
        <ele>224</ele>
        <time>2013-07-15T07:08:36Z</time>
      </trkpt>
      <trkpt lat="48.2476" lon="-0.404">
        <ele>226</ele>
        <time>2013-07-15T07:08:47Z</time>
      </trkpt>
      <trkpt lat="48.24744" lon="-0.40396">
        <ele>229</ele>
        <time>2013-07-15T07:08:53Z</time>
      </trkpt>
      <trkpt lat="48.24726" lon="-0.40393">
        <ele>230</ele>
        <time>2013-07-15T07:09:00Z</time>
      </trkpt>
      <trkpt lat="48.24709" lon="-0.40391">
        <ele>229</ele>
        <time>2013-07-15T07:09:07Z</time>
      </trkpt>
      <trkpt lat="48.24682" lon="-0.40385">
        <ele>228</ele>
        <time>2013-07-15T07:09:15Z</time>
      </trkpt>
      <trkpt lat="48.24666" lon="-0.40379">
        <ele>227</ele>
        <time>2013-07-15T07:09:20Z</time>
      </trkpt>
      <trkpt lat="48.24646" lon="-0.40379">
        <ele>232</ele>
        <time>2013-07-15T07:09:29Z</time>
      </trkpt>
      <trkpt lat="48.24626" lon="-0.40382">
        <ele>231</ele>
        <time>2013-07-15T07:09:37Z</time>
      </trkpt>
      <trkpt lat="48.24613" lon="-0.40386">
        <ele>228</ele>
        <time>2013-07-15T07:09:43Z</time>
      </trkpt>
      <trkpt lat="48.24595" lon="-0.40385">
        <ele>227</ele>
        <time>2013-07-15T07:09:52Z</time>
      </trkpt>
      <trkpt lat="48.24571" lon="-0.40382">
        <ele>237</ele>
        <time>2013-07-15T07:10:02Z</time>
      </trkpt>
      <trkpt lat="48.24552" lon="-0.40377">
        <ele>226</ele>
        <time>2013-07-15T07:10:11Z</time>
      </trkpt>
      <trkpt lat="48.24532" lon="-0.4037">
        <ele>227</ele>
        <time>2013-07-15T07:10:18Z</time>
      </trkpt>
      <trkpt lat="48.24523" lon="-0.40368">
        <ele>216</ele>
        <time>2013-07-15T07:10:21Z</time>
      </trkpt>
      <trkpt lat="48.24516" lon="-0.40364">
        <ele>220</ele>
        <time>2013-07-15T07:10:24Z</time>
      </trkpt>
      <trkpt lat="48.24496" lon="-0.40355">
        <ele>228</ele>
        <time>2013-07-15T07:10:34Z</time>
      </trkpt>
      <trkpt lat="48.24471" lon="-0.40351">
        <ele>228</ele>
        <time>2013-07-15T07:10:45Z</time>
      </trkpt>
      <trkpt lat="48.24471" lon="-0.40351">
        <ele>186.4</ele>
        <time>2013-07-15T07:10:53Z</time>
      </trkpt>
      <trkpt lat="48.24471" lon="-0.40351">
        <ele>186.4</ele>
        <time>2013-07-15T07:11:03Z</time>
      </trkpt>
      <trkpt lat="48.24463" lon="-0.40347">
        <ele>233</ele>
        <time>2013-07-15T07:11:03Z</time>
      </trkpt>
      <trkpt lat="48.24451" lon="-0.4035">
        <ele>229</ele>
        <time>2013-07-15T07:11:13Z</time>
      </trkpt>
      <trkpt lat="48.24432" lon="-0.40353">
        <ele>238</ele>
        <time>2013-07-15T07:11:24Z</time>
      </trkpt>
      <trkpt lat="48.24428" lon="-0.40356">
        <ele>240</ele>
        <time>2013-07-15T07:11:32Z</time>
      </trkpt>
      <trkpt lat="48.24428" lon="-0.40356">
        <ele>187.7</ele>
        <time>2013-07-15T07:11:40Z</time>
      </trkpt>
      <trkpt lat="48.24428" lon="-0.40356">
        <ele>187.7</ele>
        <time>2013-07-15T07:13:25Z</time>
      </trkpt>
      <trkpt lat="48.24412" lon="-0.40349">
        <ele>231</ele>
        <time>2013-07-15T07:13:25Z</time>
      </trkpt>
      <trkpt lat="48.24399" lon="-0.40346">
        <ele>231</ele>
        <time>2013-07-15T07:13:31Z</time>
      </trkpt>
      <trkpt lat="48.24384" lon="-0.40344">
        <ele>232</ele>
        <time>2013-07-15T07:13:39Z</time>
      </trkpt>
      <trkpt lat="48.24379" lon="-0.40342">
        <ele>230</ele>
        <time>2013-07-15T07:13:42Z</time>
      </trkpt>
      <trkpt lat="48.24379" lon="-0.40342">
        <ele>190.1</ele>
        <time>2013-07-15T07:13:50Z</time>
      </trkpt>
      <trkpt lat="48.24379" lon="-0.40342">
        <ele>190.1</ele>
        <time>2013-07-15T07:14:31Z</time>
      </trkpt>
      <trkpt lat="48.24352" lon="-0.40339">
        <ele>232</ele>
        <time>2013-07-15T07:14:31Z</time>
      </trkpt>
      <trkpt lat="48.24333" lon="-0.40337">
        <ele>229</ele>
        <time>2013-07-15T07:14:39Z</time>
      </trkpt>
      <trkpt lat="48.24313" lon="-0.40331">
        <ele>234</ele>
        <time>2013-07-15T07:14:49Z</time>
      </trkpt>
      <trkpt lat="48.24299" lon="-0.4033">
        <ele>236</ele>
        <time>2013-07-15T07:14:56Z</time>
      </trkpt>
      <trkpt lat="48.24276" lon="-0.40323">
        <ele>231</ele>
        <time>2013-07-15T07:15:09Z</time>
      </trkpt>
      <trkpt lat="48.24252" lon="-0.40315">
        <ele>231</ele>
        <time>2013-07-15T07:15:20Z</time>
      </trkpt>
      <trkpt lat="48.24233" lon="-0.40313">
        <ele>242</ele>
        <time>2013-07-15T07:15:29Z</time>
      </trkpt>
      <trkpt lat="48.24203" lon="-0.40301">
        <ele>238</ele>
        <time>2013-07-15T07:15:38Z</time>
      </trkpt>
      <trkpt lat="48.24189" lon="-0.40294">
        <ele>236</ele>
        <time>2013-07-15T07:15:43Z</time>
      </trkpt>
      <trkpt lat="48.24165" lon="-0.40278">
        <ele>237</ele>
        <time>2013-07-15T07:15:52Z</time>
      </trkpt>
      <trkpt lat="48.2415" lon="-0.40266">
        <ele>231</ele>
        <time>2013-07-15T07:15:57Z</time>
      </trkpt>
      <trkpt lat="48.24135" lon="-0.40244">
        <ele>241</ele>
        <time>2013-07-15T07:16:03Z</time>
      </trkpt>
      <trkpt lat="48.24123" lon="-0.40225">
        <ele>240</ele>
        <time>2013-07-15T07:16:09Z</time>
      </trkpt>
      <trkpt lat="48.24112" lon="-0.402">
        <ele>233</ele>
        <time>2013-07-15T07:16:17Z</time>
      </trkpt>
      <trkpt lat="48.24111" lon="-0.40197">
        <ele>234</ele>
        <time>2013-07-15T07:16:18Z</time>
      </trkpt>
      <trkpt lat="48.24111" lon="-0.40197">
        <ele>192</ele>
        <time>2013-07-15T07:16:26Z</time>
      </trkpt>
      <trkpt lat="48.24111" lon="-0.40197">
        <ele>192</ele>
        <time>2013-07-15T07:16:36Z</time>
      </trkpt>
      <trkpt lat="48.24103" lon="-0.40185">
        <ele>236</ele>
        <time>2013-07-15T07:16:36Z</time>
      </trkpt>
      <trkpt lat="48.2408" lon="-0.40147">
        <ele>237</ele>
        <time>2013-07-15T07:16:52Z</time>
      </trkpt>
      <trkpt lat="48.24063" lon="-0.40114">
        <ele>238</ele>
        <time>2013-07-15T07:17:03Z</time>
      </trkpt>
      <trkpt lat="48.24051" lon="-0.40088">
        <ele>243</ele>
        <time>2013-07-15T07:17:10Z</time>
      </trkpt>
      <trkpt lat="48.24041" lon="-0.40059">
        <ele>238</ele>
        <time>2013-07-15T07:17:17Z</time>
      </trkpt>
      <trkpt lat="48.24031" lon="-0.40037">
        <ele>242</ele>
        <time>2013-07-15T07:17:23Z</time>
      </trkpt>
      <trkpt lat="48.24026" lon="-0.40011">
        <ele>241</ele>
        <time>2013-07-15T07:17:31Z</time>
      </trkpt>
      <trkpt lat="48.24022" lon="-0.39992">
        <ele>237</ele>
        <time>2013-07-15T07:17:37Z</time>
      </trkpt>
      <trkpt lat="48.24024" lon="-0.39977">
        <ele>253</ele>
        <time>2013-07-15T07:17:49Z</time>
      </trkpt>
      <trkpt lat="48.24024" lon="-0.39977">
        <ele>253</ele>
        <time>2013-07-15T07:17:57Z</time>
      </trkpt>
      <trkpt lat="48.24024" lon="-0.39977">
        <ele>198.4</ele>
        <time>2013-07-15T07:17:58Z</time>
      </trkpt>
      <trkpt lat="48.24024" lon="-0.39977">
        <ele>198.4</ele>
        <time>2013-07-15T07:18:15Z</time>
      </trkpt>
      <trkpt lat="48.2401" lon="-0.39964">
        <ele>240</ele>
        <time>2013-07-15T07:18:15Z</time>
      </trkpt>
      <trkpt lat="48.23999" lon="-0.39967">
        <ele>240</ele>
        <time>2013-07-15T07:18:25Z</time>
      </trkpt>
      <trkpt lat="48.23999" lon="-0.39998">
        <ele>259</ele>
        <time>2013-07-15T07:18:42Z</time>
      </trkpt>
      <trkpt lat="48.24003" lon="-0.40002">
        <ele>254</ele>
        <time>2013-07-15T07:18:48Z</time>
      </trkpt>
      <trkpt lat="48.24003" lon="-0.40002">
        <ele>201.6</ele>
        <time>2013-07-15T07:18:56Z</time>
      </trkpt>
      <trkpt lat="48.24003" lon="-0.40002">
        <ele>201.6</ele>
        <time>2013-07-15T07:19:59Z</time>
      </trkpt>
      <trkpt lat="48.24008" lon="-0.39976">
        <ele>246</ele>
        <time>2013-07-15T07:19:59Z</time>
      </trkpt>
      <trkpt lat="48.24007" lon="-0.39941">
        <ele>246</ele>
        <time>2013-07-15T07:20:09Z</time>
      </trkpt>
      <trkpt lat="48.23992" lon="-0.39885">
        <ele>251</ele>
        <time>2013-07-15T07:20:18Z</time>
      </trkpt>
      <trkpt lat="48.23985" lon="-0.39863">
        <ele>251</ele>
        <time>2013-07-15T07:20:23Z</time>
      </trkpt>
      <trkpt lat="48.23979" lon="-0.39834">
        <ele>252</ele>
        <time>2013-07-15T07:20:31Z</time>
      </trkpt>
      <trkpt lat="48.23973" lon="-0.39813">
        <ele>254</ele>
        <time>2013-07-15T07:20:37Z</time>
      </trkpt>
      <trkpt lat="48.23964" lon="-0.3978">
        <ele>253</ele>
        <time>2013-07-15T07:20:46Z</time>
      </trkpt>
      <trkpt lat="48.23956" lon="-0.39762">
        <ele>256</ele>
        <time>2013-07-15T07:20:51Z</time>
      </trkpt>
      <trkpt lat="48.23944" lon="-0.39741">
        <ele>257</ele>
        <time>2013-07-15T07:21:00Z</time>
      </trkpt>
      <trkpt lat="48.23944" lon="-0.39741">
        <ele>257</ele>
        <time>2013-07-15T07:21:08Z</time>
      </trkpt>
      <trkpt lat="48.23944" lon="-0.39741">
        <ele>209.8</ele>
        <time>2013-07-15T07:21:08Z</time>
      </trkpt>
      <trkpt lat="48.23944" lon="-0.39741">
        <ele>209.8</ele>
        <time>2013-07-15T07:32:34Z</time>
      </trkpt>
      <trkpt lat="48.23902" lon="-0.39689">
        <ele>248</ele>
        <time>2013-07-15T07:32:44Z</time>
      </trkpt>
      <trkpt lat="48.2389" lon="-0.39668">
        <ele>259</ele>
        <time>2013-07-15T07:32:54Z</time>
      </trkpt>
      <trkpt lat="48.23866" lon="-0.39635">
        <ele>268</ele>
        <time>2013-07-15T07:33:05Z</time>
      </trkpt>
      <trkpt lat="48.23855" lon="-0.3962">
        <ele>263</ele>
        <time>2013-07-15T07:33:10Z</time>
      </trkpt>
      <trkpt lat="48.23841" lon="-0.39603">
        <ele>262</ele>
        <time>2013-07-15T07:33:17Z</time>
      </trkpt>
      <trkpt lat="48.23827" lon="-0.39584">
        <ele>279</ele>
        <time>2013-07-15T07:33:28Z</time>
      </trkpt>
      <trkpt lat="48.23803" lon="-0.39573">
        <ele>293</ele>
        <time>2013-07-15T07:33:47Z</time>
      </trkpt>
      <trkpt lat="48.23799" lon="-0.39571">
        <ele>293</ele>
        <time>2013-07-15T07:33:52Z</time>
      </trkpt>
      <trkpt lat="48.23799" lon="-0.39571">
        <ele>220.2</ele>
        <time>2013-07-15T07:33:57Z</time>
      </trkpt>
      <trkpt lat="48.23799" lon="-0.39571">
        <ele>220.2</ele>
        <time>2013-07-15T07:34:01Z</time>
      </trkpt>
      <trkpt lat="48.23791" lon="-0.39568">
        <ele>306</ele>
        <time>2013-07-15T07:34:01Z</time>
      </trkpt>
      <trkpt lat="48.23776" lon="-0.39557">
        <ele>298</ele>
        <time>2013-07-15T07:34:11Z</time>
      </trkpt>
      <trkpt lat="48.2376" lon="-0.39554">
        <ele>298</ele>
        <time>2013-07-15T07:34:18Z</time>
      </trkpt>
      <trkpt lat="48.23747" lon="-0.39555">
        <ele>292</ele>
        <time>2013-07-15T07:34:24Z</time>
      </trkpt>
      <trkpt lat="48.23731" lon="-0.39553">
        <ele>291</ele>
        <time>2013-07-15T07:34:30Z</time>
      </trkpt>
      <trkpt lat="48.23713" lon="-0.39547">
        <ele>285</ele>
        <time>2013-07-15T07:34:36Z</time>
      </trkpt>
      <trkpt lat="48.23697" lon="-0.39535">
        <ele>264</ele>
        <time>2013-07-15T07:34:43Z</time>
      </trkpt>
      <trkpt lat="48.23678" lon="-0.39512">
        <ele>278</ele>
        <time>2013-07-15T07:34:52Z</time>
      </trkpt>
      <trkpt lat="48.23663" lon="-0.39491">
        <ele>279</ele>
        <time>2013-07-15T07:34:58Z</time>
      </trkpt>
      <trkpt lat="48.2365" lon="-0.39472">
        <ele>279</ele>
        <time>2013-07-15T07:35:04Z</time>
      </trkpt>
      <trkpt lat="48.23635" lon="-0.39449">
        <ele>285</ele>
        <time>2013-07-15T07:35:11Z</time>
      </trkpt>
      <trkpt lat="48.23627" lon="-0.39436">
        <ele>286</ele>
        <time>2013-07-15T07:35:15Z</time>
      </trkpt>
      <trkpt lat="48.23605" lon="-0.39405">
        <ele>281</ele>
        <time>2013-07-15T07:35:24Z</time>
      </trkpt>
      <trkpt lat="48.23581" lon="-0.39375">
        <ele>290</ele>
        <time>2013-07-15T07:35:31Z</time>
      </trkpt>
      <trkpt lat="48.23565" lon="-0.39351">
        <ele>290</ele>
        <time>2013-07-15T07:35:37Z</time>
      </trkpt>
      <trkpt lat="48.23553" lon="-0.39336">
        <ele>294</ele>
        <time>2013-07-15T07:35:43Z</time>
      </trkpt>
      <trkpt lat="48.23541" lon="-0.39323">
        <ele>281</ele>
        <time>2013-07-15T07:35:49Z</time>
      </trkpt>
      <trkpt lat="48.23512" lon="-0.39308">
        <ele>280</ele>
        <time>2013-07-15T07:35:55Z</time>
      </trkpt>
      <trkpt lat="48.23492" lon="-0.39289">
        <ele>276</ele>
        <time>2013-07-15T07:36:01Z</time>
      </trkpt>
      <trkpt lat="48.23471" lon="-0.39269">
        <ele>272</ele>
        <time>2013-07-15T07:36:09Z</time>
      </trkpt>
      <trkpt lat="48.23463" lon="-0.3926">
        <ele>275</ele>
        <time>2013-07-15T07:36:14Z</time>
      </trkpt>
      <trkpt lat="48.2345" lon="-0.39241">
        <ele>282</ele>
        <time>2013-07-15T07:36:24Z</time>
      </trkpt>
      <trkpt lat="48.23438" lon="-0.39221">
        <ele>281</ele>
        <time>2013-07-15T07:36:33Z</time>
      </trkpt>
      <trkpt lat="48.23422" lon="-0.39188">
        <ele>284</ele>
        <time>2013-07-15T07:36:44Z</time>
      </trkpt>
      <trkpt lat="48.2341" lon="-0.39166">
        <ele>283</ele>
        <time>2013-07-15T07:36:52Z</time>
      </trkpt>
      <trkpt lat="48.23396" lon="-0.39142">
        <ele>282</ele>
        <time>2013-07-15T07:37:02Z</time>
      </trkpt>
      <trkpt lat="48.23379" lon="-0.39121">
        <ele>281</ele>
        <time>2013-07-15T07:37:10Z</time>
      </trkpt>
      <trkpt lat="48.23351" lon="-0.39095">
        <ele>273</ele>
        <time>2013-07-15T07:37:19Z</time>
      </trkpt>
      <trkpt lat="48.23335" lon="-0.39081">
        <ele>273</ele>
        <time>2013-07-15T07:37:24Z</time>
      </trkpt>
      <trkpt lat="48.23323" lon="-0.3907">
        <ele>273</ele>
        <time>2013-07-15T07:37:28Z</time>
      </trkpt>
      <trkpt lat="48.23314" lon="-0.3906">
        <ele>273</ele>
        <time>2013-07-15T07:37:31Z</time>
      </trkpt>
      <trkpt lat="48.23296" lon="-0.39041">
        <ele>268</ele>
        <time>2013-07-15T07:37:38Z</time>
      </trkpt>
      <trkpt lat="48.23278" lon="-0.39047">
        <ele>266</ele>
        <time>2013-07-15T07:37:43Z</time>
      </trkpt>
      <trkpt lat="48.23268" lon="-0.39067">
        <ele>269</ele>
        <time>2013-07-15T07:37:49Z</time>
      </trkpt>
      <trkpt lat="48.23256" lon="-0.39092">
        <ele>276</ele>
        <time>2013-07-15T07:37:57Z</time>
      </trkpt>
      <trkpt lat="48.23248" lon="-0.39108">
        <ele>274</ele>
        <time>2013-07-15T07:38:02Z</time>
      </trkpt>
      <trkpt lat="48.23228" lon="-0.39143">
        <ele>271</ele>
        <time>2013-07-15T07:38:11Z</time>
      </trkpt>
      <trkpt lat="48.23215" lon="-0.39163">
        <ele>270</ele>
        <time>2013-07-15T07:38:16Z</time>
      </trkpt>
      <trkpt lat="48.23192" lon="-0.39194">
        <ele>278</ele>
        <time>2013-07-15T07:38:23Z</time>
      </trkpt>
      <trkpt lat="48.23172" lon="-0.39218">
        <ele>282</ele>
        <time>2013-07-15T07:38:28Z</time>
      </trkpt>
      <trkpt lat="48.2316" lon="-0.39237">
        <ele>277</ele>
        <time>2013-07-15T07:38:32Z</time>
      </trkpt>
      <trkpt lat="48.23145" lon="-0.39269">
        <ele>274</ele>
        <time>2013-07-15T07:38:38Z</time>
      </trkpt>
      <trkpt lat="48.23133" lon="-0.39292">
        <ele>272</ele>
        <time>2013-07-15T07:38:43Z</time>
      </trkpt>
      <trkpt lat="48.23115" lon="-0.39316">
        <ele>268</ele>
        <time>2013-07-15T07:38:49Z</time>
      </trkpt>
      <trkpt lat="48.23099" lon="-0.39338">
        <ele>269</ele>
        <time>2013-07-15T07:38:55Z</time>
      </trkpt>
      <trkpt lat="48.23083" lon="-0.39357">
        <ele>263</ele>
        <time>2013-07-15T07:39:00Z</time>
      </trkpt>
      <trkpt lat="48.23065" lon="-0.39378">
        <ele>267</ele>
        <time>2013-07-15T07:39:06Z</time>
      </trkpt>
      <trkpt lat="48.23049" lon="-0.39396">
        <ele>269</ele>
        <time>2013-07-15T07:39:11Z</time>
      </trkpt>
      <trkpt lat="48.2303" lon="-0.39414">
        <ele>269</ele>
        <time>2013-07-15T07:39:17Z</time>
      </trkpt>
      <trkpt lat="48.23014" lon="-0.3943">
        <ele>268</ele>
        <time>2013-07-15T07:39:23Z</time>
      </trkpt>
      <trkpt lat="48.23016" lon="-0.39454">
        <ele>271</ele>
        <time>2013-07-15T07:39:29Z</time>
      </trkpt>
      <trkpt lat="48.23031" lon="-0.39483">
        <ele>263</ele>
        <time>2013-07-15T07:39:36Z</time>
      </trkpt>
      <trkpt lat="48.23038" lon="-0.3952">
        <ele>263</ele>
        <time>2013-07-15T07:39:43Z</time>
      </trkpt>
      <trkpt lat="48.23044" lon="-0.39553">
        <ele>270</ele>
        <time>2013-07-15T07:39:50Z</time>
      </trkpt>
      <trkpt lat="48.23046" lon="-0.39575">
        <ele>267</ele>
        <time>2013-07-15T07:39:55Z</time>
      </trkpt>
      <trkpt lat="48.2305" lon="-0.39593">
        <ele>268</ele>
        <time>2013-07-15T07:39:59Z</time>
      </trkpt>
      <trkpt lat="48.2306" lon="-0.39626">
        <ele>270</ele>
        <time>2013-07-15T07:40:07Z</time>
      </trkpt>
      <trkpt lat="48.23074" lon="-0.39654">
        <ele>273</ele>
        <time>2013-07-15T07:40:14Z</time>
      </trkpt>
      <trkpt lat="48.23083" lon="-0.39679">
        <ele>271</ele>
        <time>2013-07-15T07:40:20Z</time>
      </trkpt>
      <trkpt lat="48.23093" lon="-0.39713">
        <ele>271</ele>
        <time>2013-07-15T07:40:27Z</time>
      </trkpt>
      <trkpt lat="48.23101" lon="-0.39732">
        <ele>269</ele>
        <time>2013-07-15T07:40:32Z</time>
      </trkpt>
      <trkpt lat="48.23107" lon="-0.39757">
        <ele>268</ele>
        <time>2013-07-15T07:40:40Z</time>
      </trkpt>
      <trkpt lat="48.23108" lon="-0.39787">
        <ele>265</ele>
        <time>2013-07-15T07:40:49Z</time>
      </trkpt>
      <trkpt lat="48.23109" lon="-0.3981">
        <ele>269</ele>
        <time>2013-07-15T07:40:57Z</time>
      </trkpt>
      <trkpt lat="48.23112" lon="-0.39843">
        <ele>265</ele>
        <time>2013-07-15T07:41:06Z</time>
      </trkpt>
      <trkpt lat="48.23113" lon="-0.39858">
        <ele>267</ele>
        <time>2013-07-15T07:41:10Z</time>
      </trkpt>
      <trkpt lat="48.23113" lon="-0.39898">
        <ele>265</ele>
        <time>2013-07-15T07:41:19Z</time>
      </trkpt>
      <trkpt lat="48.23114" lon="-0.39925">
        <ele>265</ele>
        <time>2013-07-15T07:41:27Z</time>
      </trkpt>
      <trkpt lat="48.23115" lon="-0.39939">
        <ele>269</ele>
        <time>2013-07-15T07:41:31Z</time>
      </trkpt>
      <trkpt lat="48.23115" lon="-0.39939">
        <ele>227.6</ele>
        <time>2013-07-15T07:41:39Z</time>
      </trkpt>
      <trkpt lat="48.23115" lon="-0.39939">
        <ele>227.6</ele>
        <time>2013-07-15T07:41:46Z</time>
      </trkpt>
      <trkpt lat="48.2312" lon="-0.39942">
        <ele>275</ele>
        <time>2013-07-15T07:41:46Z</time>
      </trkpt>
      <trkpt lat="48.23138" lon="-0.39999">
        <ele>275</ele>
        <time>2013-07-15T07:42:01Z</time>
      </trkpt>
      <trkpt lat="48.23145" lon="-0.40034">
        <ele>278</ele>
        <time>2013-07-15T07:42:08Z</time>
      </trkpt>
      <trkpt lat="48.23149" lon="-0.40055">
        <ele>271</ele>
        <time>2013-07-15T07:42:13Z</time>
      </trkpt>
      <trkpt lat="48.23164" lon="-0.40094">
        <ele>278</ele>
        <time>2013-07-15T07:42:22Z</time>
      </trkpt>
      <trkpt lat="48.2317" lon="-0.40114">
        <ele>274</ele>
        <time>2013-07-15T07:42:28Z</time>
      </trkpt>
      <trkpt lat="48.23183" lon="-0.40158">
        <ele>274</ele>
        <time>2013-07-15T07:42:37Z</time>
      </trkpt>
      <trkpt lat="48.23188" lon="-0.40179">
        <ele>274</ele>
        <time>2013-07-15T07:42:42Z</time>
      </trkpt>
      <trkpt lat="48.23198" lon="-0.4021">
        <ele>267</ele>
        <time>2013-07-15T07:42:49Z</time>
      </trkpt>
      <trkpt lat="48.23209" lon="-0.40237">
        <ele>263</ele>
        <time>2013-07-15T07:42:56Z</time>
      </trkpt>
      <trkpt lat="48.23224" lon="-0.40271">
        <ele>260</ele>
        <time>2013-07-15T07:43:02Z</time>
      </trkpt>
      <trkpt lat="48.23238" lon="-0.403">
        <ele>266</ele>
        <time>2013-07-15T07:43:10Z</time>
      </trkpt>
      <trkpt lat="48.23252" lon="-0.40314">
        <ele>272</ele>
        <time>2013-07-15T07:43:15Z</time>
      </trkpt>
      <trkpt lat="48.23262" lon="-0.40322">
        <ele>275</ele>
        <time>2013-07-15T07:43:18Z</time>
      </trkpt>
      <trkpt lat="48.23278" lon="-0.40359">
        <ele>274</ele>
        <time>2013-07-15T07:43:25Z</time>
      </trkpt>
      <trkpt lat="48.23287" lon="-0.40393">
        <ele>271</ele>
        <time>2013-07-15T07:43:30Z</time>
      </trkpt>
      <trkpt lat="48.23297" lon="-0.40431">
        <ele>273</ele>
        <time>2013-07-15T07:43:36Z</time>
      </trkpt>
      <trkpt lat="48.23307" lon="-0.4046">
        <ele>262</ele>
        <time>2013-07-15T07:43:42Z</time>
      </trkpt>
      <trkpt lat="48.23316" lon="-0.40492">
        <ele>270</ele>
        <time>2013-07-15T07:43:48Z</time>
      </trkpt>
      <trkpt lat="48.23324" lon="-0.40524">
        <ele>273</ele>
        <time>2013-07-15T07:43:54Z</time>
      </trkpt>
      <trkpt lat="48.23328" lon="-0.40549">
        <ele>269</ele>
        <time>2013-07-15T07:44:01Z</time>
      </trkpt>
      <trkpt lat="48.23335" lon="-0.40578">
        <ele>267</ele>
        <time>2013-07-15T07:44:08Z</time>
      </trkpt>
      <trkpt lat="48.2334" lon="-0.40606">
        <ele>275</ele>
        <time>2013-07-15T07:44:14Z</time>
      </trkpt>
      <trkpt lat="48.23341" lon="-0.40626">
        <ele>275</ele>
        <time>2013-07-15T07:44:19Z</time>
      </trkpt>
      <trkpt lat="48.23341" lon="-0.40657">
        <ele>277</ele>
        <time>2013-07-15T07:44:25Z</time>
      </trkpt>
      <trkpt lat="48.23341" lon="-0.40657">
        <ele>277</ele>
        <time>2013-07-15T07:48:01Z</time>
      </trkpt>
      <trkpt lat="48.23348" lon="-0.40634">
        <ele>277</ele>
        <time>2013-07-15T07:48:09Z</time>
      </trkpt>
      <trkpt lat="48.23353" lon="-0.40613">
        <ele>279</ele>
        <time>2013-07-15T07:48:18Z</time>
      </trkpt>
      <trkpt lat="48.23358" lon="-0.40585">
        <ele>284</ele>
        <time>2013-07-15T07:48:31Z</time>
      </trkpt>
      <trkpt lat="48.23363" lon="-0.40571">
        <ele>277</ele>
        <time>2013-07-15T07:48:39Z</time>
      </trkpt>
      <trkpt lat="48.23368" lon="-0.40548">
        <ele>281</ele>
        <time>2013-07-15T07:48:50Z</time>
      </trkpt>
      <trkpt lat="48.23371" lon="-0.40525">
        <ele>285</ele>
        <time>2013-07-15T07:49:00Z</time>
      </trkpt>
      <trkpt lat="48.23376" lon="-0.40498">
        <ele>286</ele>
        <time>2013-07-15T07:49:11Z</time>
      </trkpt>
      <trkpt lat="48.23381" lon="-0.40477">
        <ele>285</ele>
        <time>2013-07-15T07:49:20Z</time>
      </trkpt>
      <trkpt lat="48.23389" lon="-0.40445">
        <ele>289</ele>
        <time>2013-07-15T07:49:34Z</time>
      </trkpt>
      <trkpt lat="48.23394" lon="-0.40417">
        <ele>292</ele>
        <time>2013-07-15T07:49:46Z</time>
      </trkpt>
      <trkpt lat="48.23399" lon="-0.40381">
        <ele>296</ele>
        <time>2013-07-15T07:50:01Z</time>
      </trkpt>
      <trkpt lat="48.23399" lon="-0.40349">
        <ele>294</ele>
        <time>2013-07-15T07:50:13Z</time>
      </trkpt>
      <trkpt lat="48.23392" lon="-0.4032">
        <ele>302</ele>
        <time>2013-07-15T07:50:24Z</time>
      </trkpt>
      <trkpt lat="48.2339" lon="-0.40297">
        <ele>306</ele>
        <time>2013-07-15T07:50:33Z</time>
      </trkpt>
      <trkpt lat="48.23388" lon="-0.40269">
        <ele>300</ele>
        <time>2013-07-15T07:50:41Z</time>
      </trkpt>
      <trkpt lat="48.23387" lon="-0.40251">
        <ele>297</ele>
        <time>2013-07-15T07:50:47Z</time>
      </trkpt>
      <trkpt lat="48.23386" lon="-0.40231">
        <ele>299</ele>
        <time>2013-07-15T07:50:53Z</time>
      </trkpt>
      <trkpt lat="48.23389" lon="-0.40201">
        <ele>303</ele>
        <time>2013-07-15T07:51:04Z</time>
      </trkpt>
      <trkpt lat="48.23391" lon="-0.40165">
        <ele>310</ele>
        <time>2013-07-15T07:51:16Z</time>
      </trkpt>
      <trkpt lat="48.23392" lon="-0.40146">
        <ele>304</ele>
        <time>2013-07-15T07:51:23Z</time>
      </trkpt>
      <trkpt lat="48.23403" lon="-0.40094">
        <ele>317</ele>
        <time>2013-07-15T07:51:41Z</time>
      </trkpt>
      <trkpt lat="48.23401" lon="-0.40075">
        <ele>314</ele>
        <time>2013-07-15T07:51:51Z</time>
      </trkpt>
      <trkpt lat="48.23397" lon="-0.40068">
        <ele>308</ele>
        <time>2013-07-15T07:51:59Z</time>
      </trkpt>
      <trkpt lat="48.23397" lon="-0.40068">
        <ele>264.8</ele>
        <time>2013-07-15T07:52:07Z</time>
      </trkpt>
      <trkpt lat="48.23397" lon="-0.40068">
        <ele>264.8</ele>
        <time>2013-07-15T07:54:19Z</time>
      </trkpt>
      <trkpt lat="48.23412" lon="-0.4007">
        <ele>310</ele>
        <time>2013-07-15T07:54:19Z</time>
      </trkpt>
      <trkpt lat="48.23432" lon="-0.40064">
        <ele>312</ele>
        <time>2013-07-15T07:54:30Z</time>
      </trkpt>
      <trkpt lat="48.23442" lon="-0.40037">
        <ele>319</ele>
        <time>2013-07-15T07:54:40Z</time>
      </trkpt>
      <trkpt lat="48.23457" lon="-0.40019">
        <ele>315</ele>
        <time>2013-07-15T07:54:49Z</time>
      </trkpt>
      <trkpt lat="48.23481" lon="-0.4">
        <ele>306</ele>
        <time>2013-07-15T07:55:00Z</time>
      </trkpt>
      <trkpt lat="48.23503" lon="-0.4">
        <ele>308</ele>
        <time>2013-07-15T07:55:09Z</time>
      </trkpt>
      <trkpt lat="48.23515" lon="-0.40007">
        <ele>314</ele>
        <time>2013-07-15T07:55:15Z</time>
      </trkpt>
      <trkpt lat="48.23535" lon="-0.40022">
        <ele>310</ele>
        <time>2013-07-15T07:55:26Z</time>
      </trkpt>
      <trkpt lat="48.2354" lon="-0.40034">
        <ele>311</ele>
        <time>2013-07-15T07:55:32Z</time>
      </trkpt>
      <trkpt lat="48.2354" lon="-0.40034">
        <ele>274.3</ele>
        <time>2013-07-15T07:55:37Z</time>
      </trkpt>
      <trkpt lat="48.2354" lon="-0.40034">
        <ele>274.3</ele>
        <time>2013-07-15T07:55:44Z</time>
      </trkpt>
      <trkpt lat="48.23541" lon="-0.40045">
        <ele>315</ele>
        <time>2013-07-15T07:55:44Z</time>
      </trkpt>
      <trkpt lat="48.23538" lon="-0.40076">
        <ele>326</ele>
        <time>2013-07-15T07:56:04Z</time>
      </trkpt>
      <trkpt lat="48.2353" lon="-0.40101">
        <ele>329</ele>
        <time>2013-07-15T07:56:21Z</time>
      </trkpt>
      <trkpt lat="48.2353" lon="-0.40123">
        <ele>326</ele>
        <time>2013-07-15T07:56:34Z</time>
      </trkpt>
      <trkpt lat="48.2353" lon="-0.40144">
        <ele>324</ele>
        <time>2013-07-15T07:56:49Z</time>
      </trkpt>
      <trkpt lat="48.2353" lon="-0.40169">
        <ele>328</ele>
        <time>2013-07-15T07:57:04Z</time>
      </trkpt>
      <trkpt lat="48.23538" lon="-0.40194">
        <ele>324</ele>
        <time>2013-07-15T07:57:12Z</time>
      </trkpt>
      <trkpt lat="48.23549" lon="-0.40205">
        <ele>327</ele>
        <time>2013-07-15T07:57:20Z</time>
      </trkpt>
      <trkpt lat="48.23559" lon="-0.4022">
        <ele>329</ele>
        <time>2013-07-15T07:57:28Z</time>
      </trkpt>
      <trkpt lat="48.2357" lon="-0.40249">
        <ele>335</ele>
        <time>2013-07-15T07:57:38Z</time>
      </trkpt>
      <trkpt lat="48.23572" lon="-0.40276">
        <ele>336</ele>
        <time>2013-07-15T07:57:49Z</time>
      </trkpt>
      <trkpt lat="48.23575" lon="-0.40281">
        <ele>332</ele>
        <time>2013-07-15T07:57:54Z</time>
      </trkpt>
      <trkpt lat="48.23575" lon="-0.40281">
        <ele>289.6</ele>
        <time>2013-07-15T07:58:02Z</time>
      </trkpt>
      <trkpt lat="48.23575" lon="-0.40281">
        <ele>289.6</ele>
        <time>2013-07-15T08:01:07Z</time>
      </trkpt>
      <trkpt lat="48.23577" lon="-0.40248">
        <ele>336</ele>
        <time>2013-07-15T08:01:07Z</time>
      </trkpt>
      <trkpt lat="48.23586" lon="-0.40252">
        <ele>342</ele>
        <time>2013-07-15T08:01:16Z</time>
      </trkpt>
      <trkpt lat="48.23586" lon="-0.40252">
        <ele>342</ele>
        <time>2013-07-15T08:01:24Z</time>
      </trkpt>
      <trkpt lat="48.23586" lon="-0.40252">
        <ele>289.8</ele>
        <time>2013-07-15T08:01:24Z</time>
      </trkpt>
      <trkpt lat="48.23586" lon="-0.40252">
        <ele>289.8</ele>
        <time>2013-07-15T08:02:55Z</time>
      </trkpt>
      <trkpt lat="48.23608" lon="-0.4021">
        <ele>332</ele>
        <time>2013-07-15T08:03:10Z</time>
      </trkpt>
      <trkpt lat="48.23617" lon="-0.40192">
        <ele>333</ele>
        <time>2013-07-15T08:03:26Z</time>
      </trkpt>
      <trkpt lat="48.23631" lon="-0.40169">
        <ele>324</ele>
        <time>2013-07-15T08:03:44Z</time>
      </trkpt>
      <trkpt lat="48.23654" lon="-0.40126">
        <ele>330</ele>
        <time>2013-07-15T08:04:04Z</time>
      </trkpt>
      <trkpt lat="48.23659" lon="-0.40107">
        <ele>329</ele>
        <time>2013-07-15T08:04:17Z</time>
      </trkpt>
      <trkpt lat="48.23659" lon="-0.40107">
        <ele>273.5</ele>
        <time>2013-07-15T08:04:25Z</time>
      </trkpt>
      <trkpt lat="48.23659" lon="-0.40107">
        <ele>273.5</ele>
        <time>2013-07-15T08:05:18Z</time>
      </trkpt>
      <trkpt lat="48.23699" lon="-0.40062">
        <ele>313</ele>
        <time>2013-07-15T08:05:27Z</time>
      </trkpt>
      <trkpt lat="48.23717" lon="-0.40064">
        <ele>310</ele>
        <time>2013-07-15T08:05:36Z</time>
      </trkpt>
      <trkpt lat="48.23732" lon="-0.40063">
        <ele>309</ele>
        <time>2013-07-15T08:05:44Z</time>
      </trkpt>
      <trkpt lat="48.23753" lon="-0.40067">
        <ele>312</ele>
        <time>2013-07-15T08:05:54Z</time>
      </trkpt>
      <trkpt lat="48.23767" lon="-0.40079">
        <ele>305</ele>
        <time>2013-07-15T08:06:02Z</time>
      </trkpt>
      <trkpt lat="48.23779" lon="-0.40087">
        <ele>302</ele>
        <time>2013-07-15T08:06:08Z</time>
      </trkpt>
      <trkpt lat="48.23779" lon="-0.40087">
        <ele>248.2</ele>
        <time>2013-07-15T08:06:14Z</time>
      </trkpt>
      <trkpt lat="48.23779" lon="-0.40087">
        <ele>248.2</ele>
        <time>2013-07-15T08:08:04Z</time>
      </trkpt>
      <trkpt lat="48.23815" lon="-0.40081">
        <ele>290</ele>
        <time>2013-07-15T08:08:11Z</time>
      </trkpt>
      <trkpt lat="48.23829" lon="-0.40067">
        <ele>284</ele>
        <time>2013-07-15T08:08:21Z</time>
      </trkpt>
      <trkpt lat="48.23844" lon="-0.40038">
        <ele>283</ele>
        <time>2013-07-15T08:08:31Z</time>
      </trkpt>
      <trkpt lat="48.23857" lon="-0.40003">
        <ele>284</ele>
        <time>2013-07-15T08:08:42Z</time>
      </trkpt>
      <trkpt lat="48.23865" lon="-0.39977">
        <ele>287</ele>
        <time>2013-07-15T08:08:50Z</time>
      </trkpt>
      <trkpt lat="48.23872" lon="-0.39959">
        <ele>287</ele>
        <time>2013-07-15T08:08:58Z</time>
      </trkpt>
      <trkpt lat="48.23872" lon="-0.39959">
        <ele>287</ele>
        <time>2013-07-15T08:09:05Z</time>
      </trkpt>
      <trkpt lat="48.23872" lon="-0.39959">
        <ele>237.6</ele>
        <time>2013-07-15T08:09:05Z</time>
      </trkpt>
      <trkpt lat="48.23872" lon="-0.39959">
        <ele>237.6</ele>
        <time>2013-07-15T08:09:18Z</time>
      </trkpt>
      <trkpt lat="48.2387" lon="-0.39918">
        <ele>291</ele>
        <time>2013-07-15T08:09:23Z</time>
      </trkpt>
      <trkpt lat="48.23866" lon="-0.39896">
        <ele>283</ele>
        <time>2013-07-15T08:09:32Z</time>
      </trkpt>
      <trkpt lat="48.23855" lon="-0.39866">
        <ele>276</ele>
        <time>2013-07-15T08:09:42Z</time>
      </trkpt>
      <trkpt lat="48.23844" lon="-0.3984">
        <ele>278</ele>
        <time>2013-07-15T08:09:52Z</time>
      </trkpt>
      <trkpt lat="48.23845" lon="-0.39809">
        <ele>276</ele>
        <time>2013-07-15T08:10:02Z</time>
      </trkpt>
      <trkpt lat="48.23842" lon="-0.39782">
        <ele>277</ele>
        <time>2013-07-15T08:10:13Z</time>
      </trkpt>
      <trkpt lat="48.23847" lon="-0.3976">
        <ele>277</ele>
        <time>2013-07-15T08:10:28Z</time>
      </trkpt>
      <trkpt lat="48.23854" lon="-0.39729">
        <ele>276</ele>
        <time>2013-07-15T08:10:44Z</time>
      </trkpt>
      <trkpt lat="48.23854" lon="-0.39704">
        <ele>266</ele>
        <time>2013-07-15T08:11:06Z</time>
      </trkpt>
      <trkpt lat="48.23866" lon="-0.39686">
        <ele>267</ele>
        <time>2013-07-15T08:11:15Z</time>
      </trkpt>
      <trkpt lat="48.23889" lon="-0.39675">
        <ele>263</ele>
        <time>2013-07-15T08:11:29Z</time>
      </trkpt>
      <trkpt lat="48.23892" lon="-0.39672">
        <ele>268</ele>
        <time>2013-07-15T08:11:33Z</time>
      </trkpt>
      <trkpt lat="48.23892" lon="-0.39672">
        <ele>213</ele>
        <time>2013-07-15T08:11:39Z</time>
      </trkpt>
      <trkpt lat="48.23892" lon="-0.39672">
        <ele>213</ele>
        <time>2013-07-15T08:11:54Z</time>
      </trkpt>
      <trkpt lat="48.23887" lon="-0.39658">
        <ele>267</ele>
        <time>2013-07-15T08:11:54Z</time>
      </trkpt>
      <trkpt lat="48.23882" lon="-0.39641">
        <ele>270</ele>
        <time>2013-07-15T08:12:01Z</time>
      </trkpt>
      <trkpt lat="48.23871" lon="-0.3963">
        <ele>264</ele>
        <time>2013-07-15T08:12:08Z</time>
      </trkpt>
      <trkpt lat="48.23858" lon="-0.39609">
        <ele>262</ele>
        <time>2013-07-15T08:12:18Z</time>
      </trkpt>
      <trkpt lat="48.23853" lon="-0.39604">
        <ele>261</ele>
        <time>2013-07-15T08:12:21Z</time>
      </trkpt>
      <trkpt lat="48.23853" lon="-0.39604">
        <ele>214.8</ele>
        <time>2013-07-15T08:12:29Z</time>
      </trkpt>
      <trkpt lat="48.23853" lon="-0.39604">
        <ele>214.8</ele>
        <time>2013-07-15T08:12:56Z</time>
      </trkpt>
      <trkpt lat="48.23865" lon="-0.39628">
        <ele>250</ele>
        <time>2013-07-15T08:12:56Z</time>
      </trkpt>
      <trkpt lat="48.23882" lon="-0.39647">
        <ele>261</ele>
        <time>2013-07-15T08:13:01Z</time>
      </trkpt>
      <trkpt lat="48.23904" lon="-0.39672">
        <ele>258</ele>
        <time>2013-07-15T08:13:07Z</time>
      </trkpt>
      <trkpt lat="48.23927" lon="-0.39704">
        <ele>254</ele>
        <time>2013-07-15T08:13:13Z</time>
      </trkpt>
      <trkpt lat="48.2395" lon="-0.39746">
        <ele>258</ele>
        <time>2013-07-15T08:13:19Z</time>
      </trkpt>
      <trkpt lat="48.23968" lon="-0.39793">
        <ele>254</ele>
        <time>2013-07-15T08:13:24Z</time>
      </trkpt>
      <trkpt lat="48.23985" lon="-0.39852">
        <ele>253</ele>
        <time>2013-07-15T08:13:30Z</time>
      </trkpt>
      <trkpt lat="48.23998" lon="-0.39914">
        <ele>251</ele>
        <time>2013-07-15T08:13:35Z</time>
      </trkpt>
      <trkpt lat="48.24003" lon="-0.39986">
        <ele>246</ele>
        <time>2013-07-15T08:13:41Z</time>
      </trkpt>
      <trkpt lat="48.24" lon="-0.40036">
        <ele>249</ele>
        <time>2013-07-15T08:13:46Z</time>
      </trkpt>
      <trkpt lat="48.23996" lon="-0.4006">
        <ele>251</ele>
        <time>2013-07-15T08:13:49Z</time>
      </trkpt>
      <trkpt lat="48.23989" lon="-0.40089">
        <ele>249</ele>
        <time>2013-07-15T08:13:54Z</time>
      </trkpt>
      <trkpt lat="48.23979" lon="-0.40126">
        <ele>253</ele>
        <time>2013-07-15T08:14:01Z</time>
      </trkpt>
      <trkpt lat="48.23975" lon="-0.40143">
        <ele>251</ele>
        <time>2013-07-15T08:14:04Z</time>
      </trkpt>
      <trkpt lat="48.23968" lon="-0.40164">
        <ele>249</ele>
        <time>2013-07-15T08:14:08Z</time>
      </trkpt>
      <trkpt lat="48.23964" lon="-0.40181">
        <ele>246</ele>
        <time>2013-07-15T08:14:11Z</time>
      </trkpt>
      <trkpt lat="48.2396" lon="-0.40197">
        <ele>249</ele>
        <time>2013-07-15T08:14:14Z</time>
      </trkpt>
      <trkpt lat="48.23951" lon="-0.4023">
        <ele>252</ele>
        <time>2013-07-15T08:14:20Z</time>
      </trkpt>
      <trkpt lat="48.23945" lon="-0.40251">
        <ele>252</ele>
        <time>2013-07-15T08:14:27Z</time>
      </trkpt>
      <trkpt lat="48.23929" lon="-0.40303">
        <ele>252</ele>
        <time>2013-07-15T08:14:38Z</time>
      </trkpt>
      <trkpt lat="48.2392" lon="-0.40329">
        <ele>255</ele>
        <time>2013-07-15T08:14:43Z</time>
      </trkpt>
      <trkpt lat="48.23914" lon="-0.40345">
        <ele>257</ele>
        <time>2013-07-15T08:14:46Z</time>
      </trkpt>
      <trkpt lat="48.23908" lon="-0.4036">
        <ele>254</ele>
        <time>2013-07-15T08:14:49Z</time>
      </trkpt>
      <trkpt lat="48.23903" lon="-0.40374">
        <ele>253</ele>
        <time>2013-07-15T08:14:52Z</time>
      </trkpt>
      <trkpt lat="48.23893" lon="-0.40405">
        <ele>255</ele>
        <time>2013-07-15T08:14:58Z</time>
      </trkpt>
      <trkpt lat="48.23882" lon="-0.40438">
        <ele>255</ele>
        <time>2013-07-15T08:15:04Z</time>
      </trkpt>
      <trkpt lat="48.23869" lon="-0.40474">
        <ele>251</ele>
        <time>2013-07-15T08:15:11Z</time>
      </trkpt>
      <trkpt lat="48.23858" lon="-0.40506">
        <ele>255</ele>
        <time>2013-07-15T08:15:17Z</time>
      </trkpt>
      <trkpt lat="48.23853" lon="-0.40521">
        <ele>252</ele>
        <time>2013-07-15T08:15:20Z</time>
      </trkpt>
      <trkpt lat="48.23841" lon="-0.40553">
        <ele>259</ele>
        <time>2013-07-15T08:15:26Z</time>
      </trkpt>
      <trkpt lat="48.2382" lon="-0.40584">
        <ele>256</ele>
        <time>2013-07-15T08:15:35Z</time>
      </trkpt>
      <trkpt lat="48.23827" lon="-0.40605">
        <ele>259</ele>
        <time>2013-07-15T08:15:45Z</time>
      </trkpt>
      <trkpt lat="48.2384" lon="-0.40629">
        <ele>257</ele>
        <time>2013-07-15T08:15:53Z</time>
      </trkpt>
      <trkpt lat="48.23857" lon="-0.40653">
        <ele>259</ele>
        <time>2013-07-15T08:16:01Z</time>
      </trkpt>
      <trkpt lat="48.23849" lon="-0.4068">
        <ele>254</ele>
        <time>2013-07-15T08:16:08Z</time>
      </trkpt>
      <trkpt lat="48.23841" lon="-0.407">
        <ele>249</ele>
        <time>2013-07-15T08:16:13Z</time>
      </trkpt>
      <trkpt lat="48.23836" lon="-0.4072">
        <ele>255</ele>
        <time>2013-07-15T08:16:18Z</time>
      </trkpt>
      <trkpt lat="48.23831" lon="-0.40736">
        <ele>252</ele>
        <time>2013-07-15T08:16:23Z</time>
      </trkpt>
      <trkpt lat="48.23822" lon="-0.40777">
        <ele>248</ele>
        <time>2013-07-15T08:16:31Z</time>
      </trkpt>
      <trkpt lat="48.23824" lon="-0.40817">
        <ele>250</ele>
        <time>2013-07-15T08:16:38Z</time>
      </trkpt>
      <trkpt lat="48.2383" lon="-0.40843">
        <ele>245</ele>
        <time>2013-07-15T08:16:44Z</time>
      </trkpt>
      <trkpt lat="48.23832" lon="-0.40865">
        <ele>249</ele>
        <time>2013-07-15T08:16:49Z</time>
      </trkpt>
      <trkpt lat="48.23833" lon="-0.40889">
        <ele>246</ele>
        <time>2013-07-15T08:16:54Z</time>
      </trkpt>
      <trkpt lat="48.23834" lon="-0.40908">
        <ele>257</ele>
        <time>2013-07-15T08:16:59Z</time>
      </trkpt>
      <trkpt lat="48.23832" lon="-0.40944">
        <ele>251</ele>
        <time>2013-07-15T08:17:08Z</time>
      </trkpt>
      <trkpt lat="48.23832" lon="-0.40944">
        <ele>251</ele>
        <time>2013-07-15T08:17:14Z</time>
      </trkpt>
      <trkpt lat="48.23832" lon="-0.40944">
        <ele>204</ele>
        <time>2013-07-15T08:17:14Z</time>
      </trkpt>
      <trkpt lat="48.23832" lon="-0.40944">
        <ele>204</ele>
        <time>2013-07-15T08:17:53Z</time>
      </trkpt>
      <trkpt lat="48.23831" lon="-0.40966">
        <ele>247</ele>
        <time>2013-07-15T08:17:53Z</time>
      </trkpt>
      <trkpt lat="48.2383" lon="-0.40996">
        <ele>248</ele>
        <time>2013-07-15T08:18:01Z</time>
      </trkpt>
      <trkpt lat="48.23831" lon="-0.41031">
        <ele>251</ele>
        <time>2013-07-15T08:18:09Z</time>
      </trkpt>
      <trkpt lat="48.23828" lon="-0.4106">
        <ele>248</ele>
        <time>2013-07-15T08:18:16Z</time>
      </trkpt>
      <trkpt lat="48.2382" lon="-0.41091">
        <ele>252</ele>
        <time>2013-07-15T08:18:23Z</time>
      </trkpt>
      <trkpt lat="48.23818" lon="-0.41123">
        <ele>255</ele>
        <time>2013-07-15T08:18:30Z</time>
      </trkpt>
      <trkpt lat="48.23826" lon="-0.4115">
        <ele>256</ele>
        <time>2013-07-15T08:18:36Z</time>
      </trkpt>
      <trkpt lat="48.23837" lon="-0.41154">
        <ele>254</ele>
        <time>2013-07-15T08:18:42Z</time>
      </trkpt>
      <trkpt lat="48.23837" lon="-0.41154">
        <ele>254</ele>
        <time>2013-07-15T08:18:48Z</time>
      </trkpt>
      <trkpt lat="48.23837" lon="-0.41154">
        <ele>197.5</ele>
        <time>2013-07-15T08:18:48Z</time>
      </trkpt>
      <trkpt lat="48.23837" lon="-0.41154">
        <ele>197.5</ele>
        <time>2013-07-15T08:20:15Z</time>
      </trkpt>
      <trkpt lat="48.23851" lon="-0.41168">
        <ele>241</ele>
        <time>2013-07-15T08:20:15Z</time>
      </trkpt>
      <trkpt lat="48.23852" lon="-0.41198">
        <ele>237</ele>
        <time>2013-07-15T08:20:23Z</time>
      </trkpt>
      <trkpt lat="48.23845" lon="-0.41247">
        <ele>242</ele>
        <time>2013-07-15T08:20:33Z</time>
      </trkpt>
      <trkpt lat="48.23842" lon="-0.41276">
        <ele>235</ele>
        <time>2013-07-15T08:20:40Z</time>
      </trkpt>
      <trkpt lat="48.23837" lon="-0.41316">
        <ele>235</ele>
        <time>2013-07-15T08:20:47Z</time>
      </trkpt>
      <trkpt lat="48.23836" lon="-0.41351">
        <ele>239</ele>
        <time>2013-07-15T08:20:57Z</time>
      </trkpt>
      <trkpt lat="48.23834" lon="-0.41377">
        <ele>243</ele>
        <time>2013-07-15T08:21:04Z</time>
      </trkpt>
      <trkpt lat="48.2383" lon="-0.41401">
        <ele>236</ele>
        <time>2013-07-15T08:21:09Z</time>
      </trkpt>
      <trkpt lat="48.23823" lon="-0.41431">
        <ele>241</ele>
        <time>2013-07-15T08:21:16Z</time>
      </trkpt>
      <trkpt lat="48.23821" lon="-0.41465">
        <ele>237</ele>
        <time>2013-07-15T08:21:22Z</time>
      </trkpt>
      <trkpt lat="48.23825" lon="-0.41493">
        <ele>239</ele>
        <time>2013-07-15T08:21:27Z</time>
      </trkpt>
      <trkpt lat="48.2383" lon="-0.41518">
        <ele>237</ele>
        <time>2013-07-15T08:21:32Z</time>
      </trkpt>
      <trkpt lat="48.23833" lon="-0.4155">
        <ele>237</ele>
        <time>2013-07-15T08:21:39Z</time>
      </trkpt>
      <trkpt lat="48.23846" lon="-0.41568">
        <ele>229</ele>
        <time>2013-07-15T08:21:49Z</time>
      </trkpt>
      <trkpt lat="48.23864" lon="-0.41561">
        <ele>231</ele>
        <time>2013-07-15T08:21:57Z</time>
      </trkpt>
      <trkpt lat="48.23887" lon="-0.41551">
        <ele>226</ele>
        <time>2013-07-15T08:22:06Z</time>
      </trkpt>
      <trkpt lat="48.23909" lon="-0.41555">
        <ele>225</ele>
        <time>2013-07-15T08:22:15Z</time>
      </trkpt>
      <trkpt lat="48.23929" lon="-0.41558">
        <ele>226</ele>
        <time>2013-07-15T08:22:22Z</time>
      </trkpt>
      <trkpt lat="48.2395" lon="-0.41561">
        <ele>224</ele>
        <time>2013-07-15T08:22:33Z</time>
      </trkpt>
      <trkpt lat="48.23967" lon="-0.41574">
        <ele>212</ele>
        <time>2013-07-15T08:22:43Z</time>
      </trkpt>
      <trkpt lat="48.23985" lon="-0.41581">
        <ele>208</ele>
        <time>2013-07-15T08:22:50Z</time>
      </trkpt>
      <trkpt lat="48.24008" lon="-0.41579">
        <ele>203</ele>
        <time>2013-07-15T08:22:56Z</time>
      </trkpt>
      <trkpt lat="48.24024" lon="-0.41576">
        <ele>209</ele>
        <time>2013-07-15T08:22:59Z</time>
      </trkpt>
      <trkpt lat="48.24038" lon="-0.41566">
        <ele>213</ele>
        <time>2013-07-15T08:23:05Z</time>
      </trkpt>
      <trkpt lat="48.24062" lon="-0.41561">
        <ele>211</ele>
        <time>2013-07-15T08:23:13Z</time>
      </trkpt>
      <trkpt lat="48.24087" lon="-0.41568">
        <ele>217</ele>
        <time>2013-07-15T08:23:21Z</time>
      </trkpt>
      <trkpt lat="48.24103" lon="-0.41576">
        <ele>212</ele>
        <time>2013-07-15T08:23:28Z</time>
      </trkpt>
      <trkpt lat="48.24127" lon="-0.41581">
        <ele>232</ele>
        <time>2013-07-15T08:23:36Z</time>
      </trkpt>
      <trkpt lat="48.24155" lon="-0.4158">
        <ele>226</ele>
        <time>2013-07-15T08:23:43Z</time>
      </trkpt>
      <trkpt lat="48.24179" lon="-0.41578">
        <ele>224</ele>
        <time>2013-07-15T08:23:50Z</time>
      </trkpt>
      <trkpt lat="48.242" lon="-0.41574">
        <ele>219</ele>
        <time>2013-07-15T08:23:56Z</time>
      </trkpt>
      <trkpt lat="48.24215" lon="-0.41575">
        <ele>219</ele>
        <time>2013-07-15T08:24:00Z</time>
      </trkpt>
      <trkpt lat="48.24227" lon="-0.41574">
        <ele>213</ele>
        <time>2013-07-15T08:24:04Z</time>
      </trkpt>
      <trkpt lat="48.24251" lon="-0.41577">
        <ele>214</ele>
        <time>2013-07-15T08:24:11Z</time>
      </trkpt>
      <trkpt lat="48.24264" lon="-0.416">
        <ele>219</ele>
        <time>2013-07-15T08:24:19Z</time>
      </trkpt>
      <trkpt lat="48.24269" lon="-0.41619">
        <ele>219</ele>
        <time>2013-07-15T08:24:24Z</time>
      </trkpt>
      <trkpt lat="48.24285" lon="-0.41629">
        <ele>218</ele>
        <time>2013-07-15T08:24:32Z</time>
      </trkpt>
      <trkpt lat="48.24308" lon="-0.4163">
        <ele>220</ele>
        <time>2013-07-15T08:24:41Z</time>
      </trkpt>
      <trkpt lat="48.24322" lon="-0.41635">
        <ele>228</ele>
        <time>2013-07-15T08:24:46Z</time>
      </trkpt>
      <trkpt lat="48.2434" lon="-0.41643">
        <ele>221</ele>
        <time>2013-07-15T08:24:51Z</time>
      </trkpt>
      <trkpt lat="48.24357" lon="-0.41661">
        <ele>227</ele>
        <time>2013-07-15T08:24:58Z</time>
      </trkpt>
      <trkpt lat="48.24376" lon="-0.4169">
        <ele>223</ele>
        <time>2013-07-15T08:25:06Z</time>
      </trkpt>
      <trkpt lat="48.24393" lon="-0.41703">
        <ele>224</ele>
        <time>2013-07-15T08:25:12Z</time>
      </trkpt>
      <trkpt lat="48.24407" lon="-0.41706">
        <ele>222</ele>
        <time>2013-07-15T08:25:18Z</time>
      </trkpt>
      <trkpt lat="48.24427" lon="-0.41708">
        <ele>222</ele>
        <time>2013-07-15T08:25:27Z</time>
      </trkpt>
      <trkpt lat="48.24452" lon="-0.41707">
        <ele>214</ele>
        <time>2013-07-15T08:25:37Z</time>
      </trkpt>
      <trkpt lat="48.24468" lon="-0.41707">
        <ele>215</ele>
        <time>2013-07-15T08:25:42Z</time>
      </trkpt>
      <trkpt lat="48.24486" lon="-0.41705">
        <ele>219</ele>
        <time>2013-07-15T08:25:50Z</time>
      </trkpt>
      <trkpt lat="48.24488" lon="-0.41706">
        <ele>221</ele>
        <time>2013-07-15T08:25:52Z</time>
      </trkpt>
      <trkpt lat="48.24488" lon="-0.41706">
        <ele>175.4</ele>
        <time>2013-07-15T08:25:57Z</time>
      </trkpt>
      <trkpt lat="48.24488" lon="-0.41706">
        <ele>175.4</ele>
        <time>2013-07-15T08:26:46Z</time>
      </trkpt>
      <trkpt lat="48.24513" lon="-0.41725">
        <ele>207</ele>
        <time>2013-07-15T08:26:46Z</time>
      </trkpt>
      <trkpt lat="48.24527" lon="-0.4173">
        <ele>200</ele>
        <time>2013-07-15T08:26:53Z</time>
      </trkpt>
      <trkpt lat="48.24545" lon="-0.41736">
        <ele>201</ele>
        <time>2013-07-15T08:27:03Z</time>
      </trkpt>
      <trkpt lat="48.24556" lon="-0.41736">
        <ele>207</ele>
        <time>2013-07-15T08:27:14Z</time>
      </trkpt>
      <trkpt lat="48.24593" lon="-0.41736">
        <ele>213</ele>
        <time>2013-07-15T08:27:30Z</time>
      </trkpt>
      <trkpt lat="48.2462" lon="-0.41734">
        <ele>218</ele>
        <time>2013-07-15T08:27:40Z</time>
      </trkpt>
      <trkpt lat="48.24635" lon="-0.41748">
        <ele>214</ele>
        <time>2013-07-15T08:27:48Z</time>
      </trkpt>
      <trkpt lat="48.24635" lon="-0.41771">
        <ele>212</ele>
        <time>2013-07-15T08:27:54Z</time>
      </trkpt>
      <trkpt lat="48.24638" lon="-0.41806">
        <ele>211</ele>
        <time>2013-07-15T08:28:02Z</time>
      </trkpt>
      <trkpt lat="48.24645" lon="-0.41829">
        <ele>213</ele>
        <time>2013-07-15T08:28:10Z</time>
      </trkpt>
      <trkpt lat="48.24655" lon="-0.41842">
        <ele>207</ele>
        <time>2013-07-15T08:28:19Z</time>
      </trkpt>
      <trkpt lat="48.24706" lon="-0.41815">
        <ele>211</ele>
        <time>2013-07-15T08:28:32Z</time>
      </trkpt>
      <trkpt lat="48.24742" lon="-0.41797">
        <ele>206</ele>
        <time>2013-07-15T08:28:38Z</time>
      </trkpt>
      <trkpt lat="48.2478" lon="-0.41777">
        <ele>197</ele>
        <time>2013-07-15T08:28:44Z</time>
      </trkpt>
      <trkpt lat="48.2482" lon="-0.41756">
        <ele>199</ele>
        <time>2013-07-15T08:28:51Z</time>
      </trkpt>
      <trkpt lat="48.24865" lon="-0.41733">
        <ele>206</ele>
        <time>2013-07-15T08:28:57Z</time>
      </trkpt>
      <trkpt lat="48.24896" lon="-0.41716">
        <ele>206</ele>
        <time>2013-07-15T08:29:02Z</time>
      </trkpt>
      <trkpt lat="48.24914" lon="-0.41709">
        <ele>206</ele>
        <time>2013-07-15T08:29:05Z</time>
      </trkpt>
      <trkpt lat="48.24931" lon="-0.41704">
        <ele>204</ele>
        <time>2013-07-15T08:29:08Z</time>
      </trkpt>
      <trkpt lat="48.24948" lon="-0.41701">
        <ele>200</ele>
        <time>2013-07-15T08:29:11Z</time>
      </trkpt>
      <trkpt lat="48.24965" lon="-0.41699">
        <ele>203</ele>
        <time>2013-07-15T08:29:14Z</time>
      </trkpt>
      <trkpt lat="48.24983" lon="-0.41699">
        <ele>199</ele>
        <time>2013-07-15T08:29:17Z</time>
      </trkpt>
      <trkpt lat="48.25016" lon="-0.41701">
        <ele>202</ele>
        <time>2013-07-15T08:29:23Z</time>
      </trkpt>
      <trkpt lat="48.25051" lon="-0.41706">
        <ele>198</ele>
        <time>2013-07-15T08:29:30Z</time>
      </trkpt>
      <trkpt lat="48.25074" lon="-0.41708">
        <ele>201</ele>
        <time>2013-07-15T08:29:35Z</time>
      </trkpt>
      <trkpt lat="48.25087" lon="-0.41709">
        <ele>202</ele>
        <time>2013-07-15T08:29:38Z</time>
      </trkpt>
      <trkpt lat="48.25114" lon="-0.41712">
        <ele>202</ele>
        <time>2013-07-15T08:29:44Z</time>
      </trkpt>
      <trkpt lat="48.25137" lon="-0.41715">
        <ele>204</ele>
        <time>2013-07-15T08:29:49Z</time>
      </trkpt>
      <trkpt lat="48.2515" lon="-0.41716">
        <ele>203</ele>
        <time>2013-07-15T08:29:52Z</time>
      </trkpt>
      <trkpt lat="48.25162" lon="-0.41717">
        <ele>203</ele>
        <time>2013-07-15T08:29:55Z</time>
      </trkpt>
      <trkpt lat="48.2518" lon="-0.41721">
        <ele>202</ele>
        <time>2013-07-15T08:30:00Z</time>
      </trkpt>
      <trkpt lat="48.25195" lon="-0.41726">
        <ele>201</ele>
        <time>2013-07-15T08:30:05Z</time>
      </trkpt>
      <trkpt lat="48.25211" lon="-0.41717">
        <ele>203</ele>
        <time>2013-07-15T08:30:12Z</time>
      </trkpt>
      <trkpt lat="48.25222" lon="-0.41671">
        <ele>198</ele>
        <time>2013-07-15T08:30:23Z</time>
      </trkpt>
      <trkpt lat="48.25226" lon="-0.41644">
        <ele>202</ele>
        <time>2013-07-15T08:30:30Z</time>
      </trkpt>
      <trkpt lat="48.2524" lon="-0.41628">
        <ele>199</ele>
        <time>2013-07-15T08:30:42Z</time>
      </trkpt>
      <trkpt lat="48.25248" lon="-0.4163">
        <ele>205</ele>
        <time>2013-07-15T08:30:47Z</time>
      </trkpt>
      <trkpt lat="48.25248" lon="-0.4163">
        <ele>157.1</ele>
        <time>2013-07-15T08:30:54Z</time>
      </trkpt>
      <trkpt lat="48.25248" lon="-0.4163">
        <ele>157.1</ele>
        <time>2013-07-15T08:33:41Z</time>
      </trkpt>
      <trkpt lat="48.25232" lon="-0.41626">
        <ele>210</ele>
        <time>2013-07-15T08:33:41Z</time>
      </trkpt>
      <trkpt lat="48.25222" lon="-0.41609">
        <ele>208</ele>
        <time>2013-07-15T08:33:47Z</time>
      </trkpt>
      <trkpt lat="48.25218" lon="-0.41585">
        <ele>207</ele>
        <time>2013-07-15T08:33:53Z</time>
      </trkpt>
      <trkpt lat="48.25214" lon="-0.41545">
        <ele>199</ele>
        <time>2013-07-15T08:34:02Z</time>
      </trkpt>
      <trkpt lat="48.25211" lon="-0.41519">
        <ele>202</ele>
        <time>2013-07-15T08:34:08Z</time>
      </trkpt>
      <trkpt lat="48.25207" lon="-0.41487">
        <ele>207</ele>
        <time>2013-07-15T08:34:16Z</time>
      </trkpt>
      <trkpt lat="48.25203" lon="-0.41459">
        <ele>203</ele>
        <time>2013-07-15T08:34:23Z</time>
      </trkpt>
      <trkpt lat="48.252" lon="-0.41421">
        <ele>211</ele>
        <time>2013-07-15T08:34:33Z</time>
      </trkpt>
      <trkpt lat="48.2519" lon="-0.41374">
        <ele>209</ele>
        <time>2013-07-15T08:34:43Z</time>
      </trkpt>
      <trkpt lat="48.2518" lon="-0.4135">
        <ele>206</ele>
        <time>2013-07-15T08:34:50Z</time>
      </trkpt>
      <trkpt lat="48.25166" lon="-0.4133">
        <ele>205</ele>
        <time>2013-07-15T08:34:57Z</time>
      </trkpt>
      <trkpt lat="48.25164" lon="-0.41328">
        <ele>206</ele>
        <time>2013-07-15T08:35:01Z</time>
      </trkpt>
      <trkpt lat="48.25164" lon="-0.41328">
        <ele>164.3</ele>
        <time>2013-07-15T08:35:08Z</time>
      </trkpt>
      <trkpt lat="48.25164" lon="-0.41328">
        <ele>164.3</ele>
        <time>2013-07-15T08:36:19Z</time>
      </trkpt>
      <trkpt lat="48.2515" lon="-0.41309">
        <ele>198</ele>
        <time>2013-07-15T08:36:19Z</time>
      </trkpt>
      <trkpt lat="48.25134" lon="-0.41288">
        <ele>206</ele>
        <time>2013-07-15T08:36:27Z</time>
      </trkpt>
      <trkpt lat="48.25119" lon="-0.41268">
        <ele>206</ele>
        <time>2013-07-15T08:36:34Z</time>
      </trkpt>
      <trkpt lat="48.25106" lon="-0.4124">
        <ele>206</ele>
        <time>2013-07-15T08:36:43Z</time>
      </trkpt>
      <trkpt lat="48.25095" lon="-0.41224">
        <ele>206</ele>
        <time>2013-07-15T08:36:49Z</time>
      </trkpt>
      <trkpt lat="48.25074" lon="-0.41185">
        <ele>217</ele>
        <time>2013-07-15T08:37:01Z</time>
      </trkpt>
      <trkpt lat="48.25068" lon="-0.41167">
        <ele>225</ele>
        <time>2013-07-15T08:37:07Z</time>
      </trkpt>
      <trkpt lat="48.25055" lon="-0.41143">
        <ele>224</ele>
        <time>2013-07-15T08:37:15Z</time>
      </trkpt>
      <trkpt lat="48.25046" lon="-0.41116">
        <ele>214</ele>
        <time>2013-07-15T08:37:23Z</time>
      </trkpt>
      <trkpt lat="48.25032" lon="-0.41088">
        <ele>218</ele>
        <time>2013-07-15T08:37:32Z</time>
      </trkpt>
      <trkpt lat="48.25021" lon="-0.41062">
        <ele>221</ele>
        <time>2013-07-15T08:37:43Z</time>
      </trkpt>
      <trkpt lat="48.25014" lon="-0.41038">
        <ele>215</ele>
        <time>2013-07-15T08:37:53Z</time>
      </trkpt>
      <trkpt lat="48.25004" lon="-0.4101">
        <ele>216</ele>
        <time>2013-07-15T08:38:02Z</time>
      </trkpt>
      <trkpt lat="48.24997" lon="-0.40984">
        <ele>221</ele>
        <time>2013-07-15T08:38:11Z</time>
      </trkpt>
      <trkpt lat="48.24991" lon="-0.40955">
        <ele>218</ele>
        <time>2013-07-15T08:38:20Z</time>
      </trkpt>
      <trkpt lat="48.24983" lon="-0.40929">
        <ele>221</ele>
        <time>2013-07-15T08:38:31Z</time>
      </trkpt>
      <trkpt lat="48.24975" lon="-0.40891">
        <ele>220</ele>
        <time>2013-07-15T08:38:42Z</time>
      </trkpt>
      <trkpt lat="48.24972" lon="-0.40868">
        <ele>221</ele>
        <time>2013-07-15T08:38:50Z</time>
      </trkpt>
      <trkpt lat="48.24959" lon="-0.4083">
        <ele>223</ele>
        <time>2013-07-15T08:39:02Z</time>
      </trkpt>
      <trkpt lat="48.24954" lon="-0.40816">
        <ele>225</ele>
        <time>2013-07-15T08:39:07Z</time>
      </trkpt>
      <trkpt lat="48.24946" lon="-0.40785">
        <ele>224</ele>
        <time>2013-07-15T08:39:17Z</time>
      </trkpt>
      <trkpt lat="48.2494" lon="-0.40754">
        <ele>226</ele>
        <time>2013-07-15T08:39:27Z</time>
      </trkpt>
      <trkpt lat="48.24932" lon="-0.40733">
        <ele>225</ele>
        <time>2013-07-15T08:39:36Z</time>
      </trkpt>
      <trkpt lat="48.24915" lon="-0.40694">
        <ele>226</ele>
        <time>2013-07-15T08:39:48Z</time>
      </trkpt>
      <trkpt lat="48.24908" lon="-0.40674">
        <ele>238</ele>
        <time>2013-07-15T08:39:53Z</time>
      </trkpt>
      <trkpt lat="48.24901" lon="-0.40655">
        <ele>230</ele>
        <time>2013-07-15T08:40:01Z</time>
      </trkpt>
      <trkpt lat="48.24888" lon="-0.40637">
        <ele>222</ele>
        <time>2013-07-15T08:40:10Z</time>
      </trkpt>
      <trkpt lat="48.24888" lon="-0.40618">
        <ele>229</ele>
        <time>2013-07-15T08:40:17Z</time>
      </trkpt>
      <trkpt lat="48.24898" lon="-0.40607">
        <ele>228</ele>
        <time>2013-07-15T08:40:22Z</time>
      </trkpt>
      <trkpt lat="48.24916" lon="-0.4059">
        <ele>225</ele>
        <time>2013-07-15T08:40:31Z</time>
      </trkpt>
      <trkpt lat="48.24932" lon="-0.40578">
        <ele>226</ele>
        <time>2013-07-15T08:40:37Z</time>
      </trkpt>
      <trkpt lat="48.24945" lon="-0.40569">
        <ele>227</ele>
        <time>2013-07-15T08:40:42Z</time>
      </trkpt>
      <trkpt lat="48.24964" lon="-0.40558">
        <ele>222</ele>
        <time>2013-07-15T08:40:49Z</time>
      </trkpt>
      <trkpt lat="48.24976" lon="-0.40549">
        <ele>220</ele>
        <time>2013-07-15T08:40:56Z</time>
      </trkpt>
      <trkpt lat="48.24986" lon="-0.4054">
        <ele>222</ele>
        <time>2013-07-15T08:41:03Z</time>
      </trkpt>
      <trkpt lat="48.25008" lon="-0.40517">
        <ele>227</ele>
        <time>2013-07-15T08:41:16Z</time>
      </trkpt>
      <trkpt lat="48.25023" lon="-0.40499">
        <ele>226</ele>
        <time>2013-07-15T08:41:23Z</time>
      </trkpt>
      <trkpt lat="48.25041" lon="-0.40479">
        <ele>228</ele>
        <time>2013-07-15T08:41:31Z</time>
      </trkpt>
      <trkpt lat="48.25043" lon="-0.40476">
        <ele>227</ele>
        <time>2013-07-15T08:41:36Z</time>
      </trkpt>
      <trkpt lat="48.25043" lon="-0.40476">
        <ele>178.6</ele>
        <time>2013-07-15T08:41:42Z</time>
      </trkpt>
      <trkpt lat="48.25043" lon="-0.40476">
        <ele>178.6</ele>
        <time>2013-07-15T08:42:16Z</time>
      </trkpt>
      <trkpt lat="48.25054" lon="-0.40461">
        <ele>229</ele>
        <time>2013-07-15T08:42:16Z</time>
      </trkpt>
      <trkpt lat="48.25074" lon="-0.40446">
        <ele>228</ele>
        <time>2013-07-15T08:42:26Z</time>
      </trkpt>
      <trkpt lat="48.25088" lon="-0.4044">
        <ele>221</ele>
        <time>2013-07-15T08:42:32Z</time>
      </trkpt>
      <trkpt lat="48.25113" lon="-0.4045">
        <ele>221</ele>
        <time>2013-07-15T08:42:42Z</time>
      </trkpt>
      <trkpt lat="48.25128" lon="-0.40461">
        <ele>214</ele>
        <time>2013-07-15T08:42:49Z</time>
      </trkpt>
      <trkpt lat="48.25137" lon="-0.40467">
        <ele>215</ele>
        <time>2013-07-15T08:42:54Z</time>
      </trkpt>
      <trkpt lat="48.25165" lon="-0.40479">
        <ele>215</ele>
        <time>2013-07-15T08:43:06Z</time>
      </trkpt>
      <trkpt lat="48.2519" lon="-0.40495">
        <ele>218</ele>
        <time>2013-07-15T08:43:15Z</time>
      </trkpt>
      <trkpt lat="48.25205" lon="-0.40509">
        <ele>227</ele>
        <time>2013-07-15T08:43:21Z</time>
      </trkpt>
      <trkpt lat="48.2522" lon="-0.40518">
        <ele>229</ele>
        <time>2013-07-15T08:43:26Z</time>
      </trkpt>
      <trkpt lat="48.25243" lon="-0.40531">
        <ele>225</ele>
        <time>2013-07-15T08:43:33Z</time>
      </trkpt>
      <trkpt lat="48.25263" lon="-0.40547">
        <ele>227</ele>
        <time>2013-07-15T08:43:40Z</time>
      </trkpt>
      <trkpt lat="48.25277" lon="-0.40562">
        <ele>223</ele>
        <time>2013-07-15T08:43:47Z</time>
      </trkpt>
      <trkpt lat="48.25301" lon="-0.40576">
        <ele>220</ele>
        <time>2013-07-15T08:43:55Z</time>
      </trkpt>
      <trkpt lat="48.25314" lon="-0.40585">
        <ele>219</ele>
        <time>2013-07-15T08:44:00Z</time>
      </trkpt>
      <trkpt lat="48.25332" lon="-0.406">
        <ele>220</ele>
        <time>2013-07-15T08:44:08Z</time>
      </trkpt>
      <trkpt lat="48.25357" lon="-0.40618">
        <ele>234</ele>
        <time>2013-07-15T08:44:17Z</time>
      </trkpt>
      <trkpt lat="48.25383" lon="-0.40636">
        <ele>231</ele>
        <time>2013-07-15T08:44:27Z</time>
      </trkpt>
      <trkpt lat="48.25402" lon="-0.40644">
        <ele>237</ele>
        <time>2013-07-15T08:44:34Z</time>
      </trkpt>
      <trkpt lat="48.25424" lon="-0.40655">
        <ele>232</ele>
        <time>2013-07-15T08:44:43Z</time>
      </trkpt>
      <trkpt lat="48.2544" lon="-0.40661">
        <ele>240</ele>
        <time>2013-07-15T08:44:49Z</time>
      </trkpt>
      <trkpt lat="48.25452" lon="-0.40665">
        <ele>241</ele>
        <time>2013-07-15T08:44:54Z</time>
      </trkpt>
      <trkpt lat="48.25474" lon="-0.40674">
        <ele>235</ele>
        <time>2013-07-15T08:45:03Z</time>
      </trkpt>
      <trkpt lat="48.25492" lon="-0.4068">
        <ele>237</ele>
        <time>2013-07-15T08:45:11Z</time>
      </trkpt>
      <trkpt lat="48.25509" lon="-0.40686">
        <ele>232</ele>
        <time>2013-07-15T08:45:17Z</time>
      </trkpt>
      <trkpt lat="48.25525" lon="-0.40691">
        <ele>239</ele>
        <time>2013-07-15T08:45:23Z</time>
      </trkpt>
      <trkpt lat="48.25547" lon="-0.40697">
        <ele>242</ele>
        <time>2013-07-15T08:45:32Z</time>
      </trkpt>
      <trkpt lat="48.25564" lon="-0.40711">
        <ele>242</ele>
        <time>2013-07-15T08:45:39Z</time>
      </trkpt>
      <trkpt lat="48.2558" lon="-0.40718">
        <ele>237</ele>
        <time>2013-07-15T08:45:45Z</time>
      </trkpt>
      <trkpt lat="48.25601" lon="-0.40728">
        <ele>232</ele>
        <time>2013-07-15T08:45:54Z</time>
      </trkpt>
      <trkpt lat="48.25608" lon="-0.4073">
        <ele>227</ele>
        <time>2013-07-15T08:45:57Z</time>
      </trkpt>
      <trkpt lat="48.25631" lon="-0.40731">
        <ele>231</ele>
        <time>2013-07-15T08:46:08Z</time>
      </trkpt>
      <trkpt lat="48.25635" lon="-0.40699">
        <ele>236</ele>
        <time>2013-07-15T08:46:20Z</time>
      </trkpt>
      <trkpt lat="48.25637" lon="-0.40672">
        <ele>242</ele>
        <time>2013-07-15T08:46:28Z</time>
      </trkpt>
      <trkpt lat="48.25639" lon="-0.40624">
        <ele>229</ele>
        <time>2013-07-15T08:46:37Z</time>
      </trkpt>
      <trkpt lat="48.25635" lon="-0.40581">
        <ele>227</ele>
        <time>2013-07-15T08:46:43Z</time>
      </trkpt>
      <trkpt lat="48.25626" lon="-0.4054">
        <ele>226</ele>
        <time>2013-07-15T08:46:48Z</time>
      </trkpt>
      <trkpt lat="48.25616" lon="-0.40502">
        <ele>232</ele>
        <time>2013-07-15T08:46:53Z</time>
      </trkpt>
      <trkpt lat="48.25611" lon="-0.40481">
        <ele>230</ele>
        <time>2013-07-15T08:46:56Z</time>
      </trkpt>
      <trkpt lat="48.25604" lon="-0.40447">
        <ele>231</ele>
        <time>2013-07-15T08:47:02Z</time>
      </trkpt>
      <trkpt lat="48.25598" lon="-0.40411">
        <ele>225</ele>
        <time>2013-07-15T08:47:09Z</time>
      </trkpt>
      <trkpt lat="48.25596" lon="-0.40397">
        <ele>230</ele>
        <time>2013-07-15T08:47:12Z</time>
      </trkpt>
      <trkpt lat="48.25593" lon="-0.40357">
        <ele>229</ele>
        <time>2013-07-15T08:47:20Z</time>
      </trkpt>
      <trkpt lat="48.2559" lon="-0.40324">
        <ele>231</ele>
        <time>2013-07-15T08:47:26Z</time>
      </trkpt>
      <trkpt lat="48.25587" lon="-0.40288">
        <ele>225</ele>
        <time>2013-07-15T08:47:32Z</time>
      </trkpt>
      <trkpt lat="48.25581" lon="-0.40244">
        <ele>226</ele>
        <time>2013-07-15T08:47:38Z</time>
      </trkpt>
      <trkpt lat="48.25576" lon="-0.40195">
        <ele>229</ele>
        <time>2013-07-15T08:47:44Z</time>
      </trkpt>
      <trkpt lat="48.25568" lon="-0.40143">
        <ele>231</ele>
        <time>2013-07-15T08:47:50Z</time>
      </trkpt>
      <trkpt lat="48.25565" lon="-0.4012">
        <ele>228</ele>
        <time>2013-07-15T08:47:53Z</time>
      </trkpt>
      <trkpt lat="48.25558" lon="-0.40078">
        <ele>224</ele>
        <time>2013-07-15T08:47:58Z</time>
      </trkpt>
      <trkpt lat="48.25549" lon="-0.40022">
        <ele>222</ele>
        <time>2013-07-15T08:48:04Z</time>
      </trkpt>
      <trkpt lat="48.25544" lon="-0.39992">
        <ele>221</ele>
        <time>2013-07-15T08:48:07Z</time>
      </trkpt>
      <trkpt lat="48.25536" lon="-0.39941">
        <ele>224</ele>
        <time>2013-07-15T08:48:13Z</time>
      </trkpt>
      <trkpt lat="48.25526" lon="-0.39865">
        <ele>221</ele>
        <time>2013-07-15T08:48:20Z</time>
      </trkpt>
      <trkpt lat="48.25522" lon="-0.39841">
        <ele>223</ele>
        <time>2013-07-15T08:48:23Z</time>
      </trkpt>
      <trkpt lat="48.25515" lon="-0.39804">
        <ele>220</ele>
        <time>2013-07-15T08:48:28Z</time>
      </trkpt>
      <trkpt lat="48.25508" lon="-0.39756">
        <ele>213</ele>
        <time>2013-07-15T08:48:34Z</time>
      </trkpt>
      <trkpt lat="48.25502" lon="-0.3971">
        <ele>214</ele>
        <time>2013-07-15T08:48:40Z</time>
      </trkpt>
      <trkpt lat="48.25499" lon="-0.39688">
        <ele>217</ele>
        <time>2013-07-15T08:48:43Z</time>
      </trkpt>
      <trkpt lat="48.25493" lon="-0.39651">
        <ele>219</ele>
        <time>2013-07-15T08:48:48Z</time>
      </trkpt>
      <trkpt lat="48.25488" lon="-0.39611">
        <ele>217</ele>
        <time>2013-07-15T08:48:53Z</time>
      </trkpt>
      <trkpt lat="48.25488" lon="-0.39563">
        <ele>217</ele>
        <time>2013-07-15T08:48:59Z</time>
      </trkpt>
      <trkpt lat="48.25493" lon="-0.39514">
        <ele>209</ele>
        <time>2013-07-15T08:49:05Z</time>
      </trkpt>
      <trkpt lat="48.25496" lon="-0.39489">
        <ele>204</ele>
        <time>2013-07-15T08:49:08Z</time>
      </trkpt>
      <trkpt lat="48.25499" lon="-0.39465">
        <ele>206</ele>
        <time>2013-07-15T08:49:11Z</time>
      </trkpt>
      <trkpt lat="48.25506" lon="-0.39421">
        <ele>212</ele>
        <time>2013-07-15T08:49:17Z</time>
      </trkpt>
      <trkpt lat="48.25511" lon="-0.39384">
        <ele>208</ele>
        <time>2013-07-15T08:49:22Z</time>
      </trkpt>
      <trkpt lat="48.25517" lon="-0.39342">
        <ele>208</ele>
        <time>2013-07-15T08:49:28Z</time>
      </trkpt>
      <trkpt lat="48.2552" lon="-0.39307">
        <ele>208</ele>
        <time>2013-07-15T08:49:33Z</time>
      </trkpt>
      <trkpt lat="48.25521" lon="-0.39266">
        <ele>213</ele>
        <time>2013-07-15T08:49:39Z</time>
      </trkpt>
      <trkpt lat="48.2552" lon="-0.39246">
        <ele>211</ele>
        <time>2013-07-15T08:49:42Z</time>
      </trkpt>
      <trkpt lat="48.25517" lon="-0.39226">
        <ele>213</ele>
        <time>2013-07-15T08:49:45Z</time>
      </trkpt>
      <trkpt lat="48.25513" lon="-0.39207">
        <ele>210</ele>
        <time>2013-07-15T08:49:48Z</time>
      </trkpt>
      <trkpt lat="48.25505" lon="-0.39177">
        <ele>215</ele>
        <time>2013-07-15T08:49:53Z</time>
      </trkpt>
      <trkpt lat="48.25502" lon="-0.3916">
        <ele>215</ele>
        <time>2013-07-15T08:49:56Z</time>
      </trkpt>
      <trkpt lat="48.25498" lon="-0.39144">
        <ele>213</ele>
        <time>2013-07-15T08:49:59Z</time>
      </trkpt>
      <trkpt lat="48.25492" lon="-0.39112">
        <ele>221</ele>
        <time>2013-07-15T08:50:05Z</time>
      </trkpt>
      <trkpt lat="48.25484" lon="-0.39069">
        <ele>218</ele>
        <time>2013-07-15T08:50:13Z</time>
      </trkpt>
      <trkpt lat="48.25478" lon="-0.39041">
        <ele>216</ele>
        <time>2013-07-15T08:50:18Z</time>
      </trkpt>
      <trkpt lat="48.25473" lon="-0.39014">
        <ele>221</ele>
        <time>2013-07-15T08:50:23Z</time>
      </trkpt>
      <trkpt lat="48.25467" lon="-0.38986">
        <ele>220</ele>
        <time>2013-07-15T08:50:28Z</time>
      </trkpt>
      <trkpt lat="48.25463" lon="-0.38968">
        <ele>219</ele>
        <time>2013-07-15T08:50:31Z</time>
      </trkpt>
      <trkpt lat="48.25459" lon="-0.38951">
        <ele>215</ele>
        <time>2013-07-15T08:50:34Z</time>
      </trkpt>
      <trkpt lat="48.25452" lon="-0.38913">
        <ele>223</ele>
        <time>2013-07-15T08:50:41Z</time>
      </trkpt>
      <trkpt lat="48.25446" lon="-0.38883">
        <ele>225</ele>
        <time>2013-07-15T08:50:46Z</time>
      </trkpt>
      <trkpt lat="48.25443" lon="-0.38866">
        <ele>221</ele>
        <time>2013-07-15T08:50:49Z</time>
      </trkpt>
      <trkpt lat="48.2544" lon="-0.38851">
        <ele>221</ele>
        <time>2013-07-15T08:50:52Z</time>
      </trkpt>
      <trkpt lat="48.25436" lon="-0.38834">
        <ele>221</ele>
        <time>2013-07-15T08:50:55Z</time>
      </trkpt>
      <trkpt lat="48.25432" lon="-0.38817">
        <ele>222</ele>
        <time>2013-07-15T08:50:58Z</time>
      </trkpt>
      <trkpt lat="48.25426" lon="-0.38782">
        <ele>224</ele>
        <time>2013-07-15T08:51:05Z</time>
      </trkpt>
      <trkpt lat="48.25417" lon="-0.38743">
        <ele>225</ele>
        <time>2013-07-15T08:51:12Z</time>
      </trkpt>
      <trkpt lat="48.25414" lon="-0.38727">
        <ele>222</ele>
        <time>2013-07-15T08:51:15Z</time>
      </trkpt>
      <trkpt lat="48.25411" lon="-0.3871">
        <ele>222</ele>
        <time>2013-07-15T08:51:18Z</time>
      </trkpt>
      <trkpt lat="48.25405" lon="-0.38682">
        <ele>218</ele>
        <time>2013-07-15T08:51:23Z</time>
      </trkpt>
      <trkpt lat="48.25399" lon="-0.38653">
        <ele>220</ele>
        <time>2013-07-15T08:51:29Z</time>
      </trkpt>
      <trkpt lat="48.25385" lon="-0.38584">
        <ele>213</ele>
        <time>2013-07-15T08:51:40Z</time>
      </trkpt>
      <trkpt lat="48.25379" lon="-0.38552">
        <ele>216</ele>
        <time>2013-07-15T08:51:45Z</time>
      </trkpt>
      <trkpt lat="48.25372" lon="-0.38518">
        <ele>214</ele>
        <time>2013-07-15T08:51:50Z</time>
      </trkpt>
      <trkpt lat="48.25363" lon="-0.3848">
        <ele>216</ele>
        <time>2013-07-15T08:51:56Z</time>
      </trkpt>
      <trkpt lat="48.25355" lon="-0.38445">
        <ele>216</ele>
        <time>2013-07-15T08:52:02Z</time>
      </trkpt>
      <trkpt lat="48.25349" lon="-0.38409">
        <ele>218</ele>
        <time>2013-07-15T08:52:08Z</time>
      </trkpt>
      <trkpt lat="48.25344" lon="-0.38381">
        <ele>217</ele>
        <time>2013-07-15T08:52:14Z</time>
      </trkpt>
      <trkpt lat="48.25338" lon="-0.38351">
        <ele>224</ele>
        <time>2013-07-15T08:52:21Z</time>
      </trkpt>
      <trkpt lat="48.25335" lon="-0.38338">
        <ele>219</ele>
        <time>2013-07-15T08:52:24Z</time>
      </trkpt>
      <trkpt lat="48.25332" lon="-0.38324">
        <ele>217</ele>
        <time>2013-07-15T08:52:27Z</time>
      </trkpt>
      <trkpt lat="48.25326" lon="-0.38291">
        <ele>219</ele>
        <time>2013-07-15T08:52:34Z</time>
      </trkpt>
      <trkpt lat="48.25318" lon="-0.38249">
        <ele>222</ele>
        <time>2013-07-15T08:52:42Z</time>
      </trkpt>
      <trkpt lat="48.25315" lon="-0.38231">
        <ele>218</ele>
        <time>2013-07-15T08:52:45Z</time>
      </trkpt>
      <trkpt lat="48.25309" lon="-0.38202">
        <ele>220</ele>
        <time>2013-07-15T08:52:50Z</time>
      </trkpt>
      <trkpt lat="48.25302" lon="-0.38167">
        <ele>220</ele>
        <time>2013-07-15T08:52:56Z</time>
      </trkpt>
      <trkpt lat="48.25296" lon="-0.3814">
        <ele>222</ele>
        <time>2013-07-15T08:53:01Z</time>
      </trkpt>
      <trkpt lat="48.25293" lon="-0.38125">
        <ele>222</ele>
        <time>2013-07-15T08:53:04Z</time>
      </trkpt>
      <trkpt lat="48.2529" lon="-0.38092">
        <ele>224</ele>
        <time>2013-07-15T08:53:10Z</time>
      </trkpt>
      <trkpt lat="48.25289" lon="-0.38076">
        <ele>225</ele>
        <time>2013-07-15T08:53:13Z</time>
      </trkpt>
      <trkpt lat="48.25288" lon="-0.38059">
        <ele>222</ele>
        <time>2013-07-15T08:53:16Z</time>
      </trkpt>
      <trkpt lat="48.25288" lon="-0.38041">
        <ele>225</ele>
        <time>2013-07-15T08:53:19Z</time>
      </trkpt>
      <trkpt lat="48.25288" lon="-0.38024">
        <ele>226</ele>
        <time>2013-07-15T08:53:22Z</time>
      </trkpt>
      <trkpt lat="48.25288" lon="-0.37983">
        <ele>226</ele>
        <time>2013-07-15T08:53:29Z</time>
      </trkpt>
      <trkpt lat="48.25288" lon="-0.37954">
        <ele>230</ele>
        <time>2013-07-15T08:53:34Z</time>
      </trkpt>
      <trkpt lat="48.25288" lon="-0.37911">
        <ele>229</ele>
        <time>2013-07-15T08:53:41Z</time>
      </trkpt>
      <trkpt lat="48.25288" lon="-0.37869">
        <ele>233</ele>
        <time>2013-07-15T08:53:48Z</time>
      </trkpt>
      <trkpt lat="48.25288" lon="-0.37851">
        <ele>228</ele>
        <time>2013-07-15T08:53:51Z</time>
      </trkpt>
      <trkpt lat="48.25287" lon="-0.3781">
        <ele>231</ele>
        <time>2013-07-15T08:53:58Z</time>
      </trkpt>
      <trkpt lat="48.25287" lon="-0.37774">
        <ele>229</ele>
        <time>2013-07-15T08:54:06Z</time>
      </trkpt>
      <trkpt lat="48.25286" lon="-0.37751">
        <ele>225</ele>
        <time>2013-07-15T08:54:11Z</time>
      </trkpt>
      <trkpt lat="48.25286" lon="-0.37729">
        <ele>229</ele>
        <time>2013-07-15T08:54:16Z</time>
      </trkpt>
      <trkpt lat="48.25286" lon="-0.37693">
        <ele>228</ele>
        <time>2013-07-15T08:54:23Z</time>
      </trkpt>
      <trkpt lat="48.25286" lon="-0.37656">
        <ele>228</ele>
        <time>2013-07-15T08:54:30Z</time>
      </trkpt>
      <trkpt lat="48.25283" lon="-0.37612">
        <ele>222</ele>
        <time>2013-07-15T08:54:37Z</time>
      </trkpt>
      <trkpt lat="48.25284" lon="-0.37576">
        <ele>228</ele>
        <time>2013-07-15T08:54:43Z</time>
      </trkpt>
      <trkpt lat="48.25287" lon="-0.37545">
        <ele>227</ele>
        <time>2013-07-15T08:54:49Z</time>
      </trkpt>
      <trkpt lat="48.25286" lon="-0.37512">
        <ele>218</ele>
        <time>2013-07-15T08:54:56Z</time>
      </trkpt>
      <trkpt lat="48.2528" lon="-0.37479">
        <ele>219</ele>
        <time>2013-07-15T08:55:03Z</time>
      </trkpt>
      <trkpt lat="48.2527" lon="-0.37448">
        <ele>222</ele>
        <time>2013-07-15T08:55:10Z</time>
      </trkpt>
      <trkpt lat="48.25262" lon="-0.37429">
        <ele>220</ele>
        <time>2013-07-15T08:55:16Z</time>
      </trkpt>
      <trkpt lat="48.25246" lon="-0.37398">
        <ele>223</ele>
        <time>2013-07-15T08:55:25Z</time>
      </trkpt>
      <trkpt lat="48.25234" lon="-0.37373">
        <ele>223</ele>
        <time>2013-07-15T08:55:31Z</time>
      </trkpt>
      <trkpt lat="48.25222" lon="-0.37347">
        <ele>222</ele>
        <time>2013-07-15T08:55:39Z</time>
      </trkpt>
      <trkpt lat="48.25199" lon="-0.37295">
        <ele>219</ele>
        <time>2013-07-15T08:55:48Z</time>
      </trkpt>
      <trkpt lat="48.25191" lon="-0.37258">
        <ele>215</ele>
        <time>2013-07-15T08:55:55Z</time>
      </trkpt>
      <trkpt lat="48.25188" lon="-0.37239">
        <ele>219</ele>
        <time>2013-07-15T08:55:59Z</time>
      </trkpt>
      <trkpt lat="48.25181" lon="-0.37212">
        <ele>223</ele>
        <time>2013-07-15T08:56:05Z</time>
      </trkpt>
      <trkpt lat="48.25173" lon="-0.37182">
        <ele>224</ele>
        <time>2013-07-15T08:56:12Z</time>
      </trkpt>
      <trkpt lat="48.25169" lon="-0.37163">
        <ele>229</ele>
        <time>2013-07-15T08:56:16Z</time>
      </trkpt>
      <trkpt lat="48.2516" lon="-0.37126">
        <ele>232</ele>
        <time>2013-07-15T08:56:24Z</time>
      </trkpt>
      <trkpt lat="48.25153" lon="-0.37098">
        <ele>232</ele>
        <time>2013-07-15T08:56:31Z</time>
      </trkpt>
      <trkpt lat="48.25148" lon="-0.37081">
        <ele>228</ele>
        <time>2013-07-15T08:56:35Z</time>
      </trkpt>
      <trkpt lat="48.25142" lon="-0.37063">
        <ele>232</ele>
        <time>2013-07-15T08:56:40Z</time>
      </trkpt>
      <trkpt lat="48.25133" lon="-0.3703">
        <ele>232</ele>
        <time>2013-07-15T08:56:49Z</time>
      </trkpt>
      <trkpt lat="48.25127" lon="-0.37009">
        <ele>236</ele>
        <time>2013-07-15T08:56:58Z</time>
      </trkpt>
      <trkpt lat="48.25119" lon="-0.36976">
        <ele>239</ele>
        <time>2013-07-15T08:57:06Z</time>
      </trkpt>
      <trkpt lat="48.25113" lon="-0.36951">
        <ele>235</ele>
        <time>2013-07-15T08:57:12Z</time>
      </trkpt>
      <trkpt lat="48.25105" lon="-0.36913">
        <ele>224</ele>
        <time>2013-07-15T08:57:20Z</time>
      </trkpt>
      <trkpt lat="48.25098" lon="-0.3688">
        <ele>228</ele>
        <time>2013-07-15T08:57:27Z</time>
      </trkpt>
      <trkpt lat="48.25089" lon="-0.36844">
        <ele>226</ele>
        <time>2013-07-15T08:57:34Z</time>
      </trkpt>
      <trkpt lat="48.25085" lon="-0.3683">
        <ele>232</ele>
        <time>2013-07-15T08:57:37Z</time>
      </trkpt>
      <trkpt lat="48.25082" lon="-0.36816">
        <ele>231</ele>
        <time>2013-07-15T08:57:40Z</time>
      </trkpt>
      <trkpt lat="48.25076" lon="-0.36789">
        <ele>238</ele>
        <time>2013-07-15T08:57:45Z</time>
      </trkpt>
      <trkpt lat="48.25068" lon="-0.36756">
        <ele>235</ele>
        <time>2013-07-15T08:57:51Z</time>
      </trkpt>
      <trkpt lat="48.25062" lon="-0.36731">
        <ele>236</ele>
        <time>2013-07-15T08:57:56Z</time>
      </trkpt>
      <trkpt lat="48.25058" lon="-0.36717">
        <ele>240</ele>
        <time>2013-07-15T08:57:59Z</time>
      </trkpt>
      <trkpt lat="48.25051" lon="-0.36689">
        <ele>236</ele>
        <time>2013-07-15T08:58:06Z</time>
      </trkpt>
      <trkpt lat="48.25049" lon="-0.36661">
        <ele>239</ele>
        <time>2013-07-15T08:58:15Z</time>
      </trkpt>
      <trkpt lat="48.25069" lon="-0.36634">
        <ele>227</ele>
        <time>2013-07-15T08:58:23Z</time>
      </trkpt>
      <trkpt lat="48.25086" lon="-0.36614">
        <ele>227</ele>
        <time>2013-07-15T08:58:28Z</time>
      </trkpt>
      <trkpt lat="48.25104" lon="-0.36592">
        <ele>224</ele>
        <time>2013-07-15T08:58:34Z</time>
      </trkpt>
      <trkpt lat="48.25125" lon="-0.36568">
        <ele>225</ele>
        <time>2013-07-15T08:58:40Z</time>
      </trkpt>
      <trkpt lat="48.25141" lon="-0.36548">
        <ele>226</ele>
        <time>2013-07-15T08:58:46Z</time>
      </trkpt>
      <trkpt lat="48.25151" lon="-0.36549">
        <ele>229</ele>
        <time>2013-07-15T08:58:51Z</time>
      </trkpt>
      <trkpt lat="48.25156" lon="-0.3659">
        <ele>226</ele>
        <time>2013-07-15T08:59:02Z</time>
      </trkpt>
      <trkpt lat="48.2516" lon="-0.36619">
        <ele>228</ele>
        <time>2013-07-15T08:59:09Z</time>
      </trkpt>
      <trkpt lat="48.2517" lon="-0.36646">
        <ele>231</ele>
        <time>2013-07-15T08:59:15Z</time>
      </trkpt>
      <trkpt lat="48.25182" lon="-0.36679">
        <ele>222</ele>
        <time>2013-07-15T08:59:22Z</time>
      </trkpt>
      <trkpt lat="48.252" lon="-0.36727">
        <ele>221</ele>
        <time>2013-07-15T08:59:31Z</time>
      </trkpt>
      <trkpt lat="48.25208" lon="-0.36761">
        <ele>226</ele>
        <time>2013-07-15T08:59:37Z</time>
      </trkpt>
      <trkpt lat="48.25214" lon="-0.36788">
        <ele>225</ele>
        <time>2013-07-15T08:59:42Z</time>
      </trkpt>
      <trkpt lat="48.25221" lon="-0.3682">
        <ele>224</ele>
        <time>2013-07-15T08:59:48Z</time>
      </trkpt>
      <trkpt lat="48.25228" lon="-0.36865">
        <ele>225</ele>
        <time>2013-07-15T08:59:56Z</time>
      </trkpt>
      <trkpt lat="48.25233" lon="-0.369">
        <ele>223</ele>
        <time>2013-07-15T09:00:02Z</time>
      </trkpt>
      <trkpt lat="48.25238" lon="-0.3693">
        <ele>225</ele>
        <time>2013-07-15T09:00:09Z</time>
      </trkpt>
      <trkpt lat="48.25243" lon="-0.36961">
        <ele>226</ele>
        <time>2013-07-15T09:00:15Z</time>
      </trkpt>
      <trkpt lat="48.25245" lon="-0.36974">
        <ele>221</ele>
        <time>2013-07-15T09:00:18Z</time>
      </trkpt>
      <trkpt lat="48.25262" lon="-0.3699">
        <ele>225</ele>
        <time>2013-07-15T09:00:26Z</time>
      </trkpt>
      <trkpt lat="48.25271" lon="-0.36984">
        <ele>224</ele>
        <time>2013-07-15T09:00:33Z</time>
      </trkpt>
      <trkpt lat="48.25271" lon="-0.36984">
        <ele>224</ele>
        <time>2013-07-15T09:00:40Z</time>
      </trkpt>
      <trkpt lat="48.25271" lon="-0.36984">
        <ele>176</ele>
        <time>2013-07-15T09:00:40Z</time>
      </trkpt>
      <trkpt lat="48.25271" lon="-0.36984">
        <ele>176</ele>
        <time>2013-07-15T09:06:09Z</time>
      </trkpt>
      <trkpt lat="48.25287" lon="-0.36976">
        <ele>229</ele>
        <time>2013-07-15T09:06:09Z</time>
      </trkpt>
      <trkpt lat="48.25301" lon="-0.36966">
        <ele>228</ele>
        <time>2013-07-15T09:06:15Z</time>
      </trkpt>
      <trkpt lat="48.25322" lon="-0.36952">
        <ele>228</ele>
        <time>2013-07-15T09:06:23Z</time>
      </trkpt>
      <trkpt lat="48.25338" lon="-0.36931">
        <ele>222</ele>
        <time>2013-07-15T09:06:31Z</time>
      </trkpt>
      <trkpt lat="48.2534" lon="-0.3689">
        <ele>232</ele>
        <time>2013-07-15T09:06:40Z</time>
      </trkpt>
      <trkpt lat="48.25329" lon="-0.3686">
        <ele>229</ele>
        <time>2013-07-15T09:06:47Z</time>
      </trkpt>
      <trkpt lat="48.25314" lon="-0.3683">
        <ele>231</ele>
        <time>2013-07-15T09:06:54Z</time>
      </trkpt>
      <trkpt lat="48.25306" lon="-0.36806">
        <ele>225</ele>
        <time>2013-07-15T09:06:59Z</time>
      </trkpt>
      <trkpt lat="48.25301" lon="-0.36788">
        <ele>225</ele>
        <time>2013-07-15T09:07:02Z</time>
      </trkpt>
      <trkpt lat="48.25286" lon="-0.36754">
        <ele>215</ele>
        <time>2013-07-15T09:07:09Z</time>
      </trkpt>
      <trkpt lat="48.2527" lon="-0.36736">
        <ele>217</ele>
        <time>2013-07-15T09:07:14Z</time>
      </trkpt>
      <trkpt lat="48.25253" lon="-0.36719">
        <ele>219</ele>
        <time>2013-07-15T09:07:20Z</time>
      </trkpt>
      <trkpt lat="48.25233" lon="-0.36704">
        <ele>220</ele>
        <time>2013-07-15T09:07:26Z</time>
      </trkpt>
      <trkpt lat="48.25216" lon="-0.3669">
        <ele>220</ele>
        <time>2013-07-15T09:07:31Z</time>
      </trkpt>
      <trkpt lat="48.25203" lon="-0.36673">
        <ele>225</ele>
        <time>2013-07-15T09:07:37Z</time>
      </trkpt>
      <trkpt lat="48.25187" lon="-0.36643">
        <ele>224</ele>
        <time>2013-07-15T09:07:44Z</time>
      </trkpt>
      <trkpt lat="48.25169" lon="-0.36621">
        <ele>222</ele>
        <time>2013-07-15T09:07:50Z</time>
      </trkpt>
      <trkpt lat="48.25154" lon="-0.36595">
        <ele>223</ele>
        <time>2013-07-15T09:07:58Z</time>
      </trkpt>
      <trkpt lat="48.25148" lon="-0.36577">
        <ele>221</ele>
        <time>2013-07-15T09:08:03Z</time>
      </trkpt>
      <trkpt lat="48.25135" lon="-0.36571">
        <ele>227</ele>
        <time>2013-07-15T09:08:14Z</time>
      </trkpt>
      <trkpt lat="48.25106" lon="-0.36603">
        <ele>224</ele>
        <time>2013-07-15T09:08:26Z</time>
      </trkpt>
      <trkpt lat="48.25089" lon="-0.36623">
        <ele>226</ele>
        <time>2013-07-15T09:08:33Z</time>
      </trkpt>
      <trkpt lat="48.25071" lon="-0.36644">
        <ele>230</ele>
        <time>2013-07-15T09:08:41Z</time>
      </trkpt>
      <trkpt lat="48.25054" lon="-0.36658">
        <ele>231</ele>
        <time>2013-07-15T09:08:50Z</time>
      </trkpt>
      <trkpt lat="48.25047" lon="-0.36622">
        <ele>227</ele>
        <time>2013-07-15T09:09:01Z</time>
      </trkpt>
      <trkpt lat="48.25058" lon="-0.36589">
        <ele>228</ele>
        <time>2013-07-15T09:09:07Z</time>
      </trkpt>
      <trkpt lat="48.25067" lon="-0.36555">
        <ele>226</ele>
        <time>2013-07-15T09:09:13Z</time>
      </trkpt>
      <trkpt lat="48.25075" lon="-0.36528">
        <ele>223</ele>
        <time>2013-07-15T09:09:18Z</time>
      </trkpt>
      <trkpt lat="48.25085" lon="-0.36495">
        <ele>224</ele>
        <time>2013-07-15T09:09:24Z</time>
      </trkpt>
      <trkpt lat="48.25093" lon="-0.36463">
        <ele>220</ele>
        <time>2013-07-15T09:09:30Z</time>
      </trkpt>
      <trkpt lat="48.251" lon="-0.36431">
        <ele>227</ele>
        <time>2013-07-15T09:09:35Z</time>
      </trkpt>
      <trkpt lat="48.25103" lon="-0.36414">
        <ele>228</ele>
        <time>2013-07-15T09:09:38Z</time>
      </trkpt>
      <trkpt lat="48.25105" lon="-0.36377">
        <ele>228</ele>
        <time>2013-07-15T09:09:48Z</time>
      </trkpt>
      <trkpt lat="48.25107" lon="-0.3633">
        <ele>230</ele>
        <time>2013-07-15T09:10:00Z</time>
      </trkpt>
      <trkpt lat="48.25097" lon="-0.36307">
        <ele>222</ele>
        <time>2013-07-15T09:10:06Z</time>
      </trkpt>
      <trkpt lat="48.25082" lon="-0.36265">
        <ele>221</ele>
        <time>2013-07-15T09:10:15Z</time>
      </trkpt>
      <trkpt lat="48.25073" lon="-0.36242">
        <ele>228</ele>
        <time>2013-07-15T09:10:21Z</time>
      </trkpt>
      <trkpt lat="48.25083" lon="-0.36211">
        <ele>228</ele>
        <time>2013-07-15T09:10:32Z</time>
      </trkpt>
      <trkpt lat="48.25088" lon="-0.36204">
        <ele>231</ele>
        <time>2013-07-15T09:10:40Z</time>
      </trkpt>
      <trkpt lat="48.25099" lon="-0.36191">
        <ele>229</ele>
        <time>2013-07-15T09:10:55Z</time>
      </trkpt>
      <trkpt lat="48.25112" lon="-0.36179">
        <ele>232</ele>
        <time>2013-07-15T09:11:01Z</time>
      </trkpt>
      <trkpt lat="48.25121" lon="-0.3617">
        <ele>233</ele>
        <time>2013-07-15T09:11:06Z</time>
      </trkpt>
      <trkpt lat="48.2513" lon="-0.36152">
        <ele>234</ele>
        <time>2013-07-15T09:11:15Z</time>
      </trkpt>
      <trkpt lat="48.2514" lon="-0.36118">
        <ele>235</ele>
        <time>2013-07-15T09:11:28Z</time>
      </trkpt>
      <trkpt lat="48.25146" lon="-0.36107">
        <ele>238</ele>
        <time>2013-07-15T09:11:33Z</time>
      </trkpt>
      <trkpt lat="48.25158" lon="-0.36091">
        <ele>240</ele>
        <time>2013-07-15T09:11:41Z</time>
      </trkpt>
      <trkpt lat="48.25173" lon="-0.36072">
        <ele>242</ele>
        <time>2013-07-15T09:11:50Z</time>
      </trkpt>
      <trkpt lat="48.25184" lon="-0.36056">
        <ele>240</ele>
        <time>2013-07-15T09:11:57Z</time>
      </trkpt>
      <trkpt lat="48.25194" lon="-0.36042">
        <ele>240</ele>
        <time>2013-07-15T09:12:04Z</time>
      </trkpt>
      <trkpt lat="48.25205" lon="-0.36028">
        <ele>241</ele>
        <time>2013-07-15T09:12:11Z</time>
      </trkpt>
      <trkpt lat="48.25215" lon="-0.36007">
        <ele>242</ele>
        <time>2013-07-15T09:12:19Z</time>
      </trkpt>
      <trkpt lat="48.25219" lon="-0.35999">
        <ele>236</ele>
        <time>2013-07-15T09:12:21Z</time>
      </trkpt>
      <trkpt lat="48.25223" lon="-0.35972">
        <ele>246</ele>
        <time>2013-07-15T09:12:30Z</time>
      </trkpt>
      <trkpt lat="48.25228" lon="-0.35959">
        <ele>243</ele>
        <time>2013-07-15T09:12:40Z</time>
      </trkpt>
      <trkpt lat="48.25228" lon="-0.35959">
        <ele>200.4</ele>
        <time>2013-07-15T09:12:52Z</time>
      </trkpt>
      <trkpt lat="48.25228" lon="-0.35959">
        <ele>200.4</ele>
        <time>2013-07-15T09:12:53Z</time>
      </trkpt>
    </trkseg>
  </trk>
</gpx>